<?xml version="1.0" encoding="UTF-8" standalone="no" ?>
<gpx xmlns="http://www.topografix.com/GPX/1/1" xmlns:xsi="http://www.w3.org/2001/XMLSchema-instance" xsi:schemaLocation="http://www.topografix.com/GPX/1/1 http://www.topografix.com/GPX/1/1/gpx.xsd" version="1.1" creator="VisuGPX - https://www.visugpx.com">
  <metadata>
    <name>Traces S3-1 Linvinhac Le Haut - Figeac</name>
  </metadata>
  <trk>
    <name><![CDATA[Traces S3-1 Linvinhac Le Haut - Figeac]]></name>
    <trkseg>
      <trkpt lat="44.59138" lon="2.23155">
        <ele>213</ele>
        <time>2021-05-09T09:24:22+02:00</time>
      </trkpt>
      <trkpt lat="44.59157" lon="2.23134">
        <ele>206</ele>
        <time>2021-05-09T09:26:56+02:00</time>
      </trkpt>
      <trkpt lat="44.59151" lon="2.23104">
        <ele>209</ele>
        <time>2021-05-09T09:27:16+02:00</time>
      </trkpt>
      <trkpt lat="44.5914" lon="2.23075">
        <ele>209</ele>
        <time>2021-05-09T09:27:39+02:00</time>
      </trkpt>
      <trkpt lat="44.59127" lon="2.23047">
        <ele>208</ele>
        <time>2021-05-09T09:28:00+02:00</time>
      </trkpt>
      <trkpt lat="44.59132" lon="2.23016">
        <ele>207</ele>
        <time>2021-05-09T09:28:21+02:00</time>
      </trkpt>
      <trkpt lat="44.59148" lon="2.22992">
        <ele>207</ele>
        <time>2021-05-09T09:28:39+02:00</time>
      </trkpt>
      <trkpt lat="44.5916" lon="2.22965">
        <ele>208</ele>
        <time>2021-05-09T09:28:57+02:00</time>
      </trkpt>
      <trkpt lat="44.5917" lon="2.22937">
        <ele>207</ele>
        <time>2021-05-09T09:29:15+02:00</time>
      </trkpt>
      <trkpt lat="44.59179" lon="2.22907">
        <ele>204</ele>
        <time>2021-05-09T09:29:45+02:00</time>
      </trkpt>
      <trkpt lat="44.59191" lon="2.22879">
        <ele>203</ele>
        <time>2021-05-09T09:30:04+02:00</time>
      </trkpt>
      <trkpt lat="44.59204" lon="2.22852">
        <ele>200</ele>
        <time>2021-05-09T09:30:23+02:00</time>
      </trkpt>
      <trkpt lat="44.59211" lon="2.22822">
        <ele>198</ele>
        <time>2021-05-09T09:30:42+02:00</time>
      </trkpt>
      <trkpt lat="44.59233" lon="2.22812">
        <ele>197</ele>
        <time>2021-05-09T09:31:06+02:00</time>
      </trkpt>
      <trkpt lat="44.59257" lon="2.22807">
        <ele>197</ele>
        <time>2021-05-09T09:31:25+02:00</time>
      </trkpt>
      <trkpt lat="44.59279" lon="2.22798">
        <ele>196</ele>
        <time>2021-05-09T09:31:43+02:00</time>
      </trkpt>
      <trkpt lat="44.59299" lon="2.22781">
        <ele>196</ele>
        <time>2021-05-09T09:32:02+02:00</time>
      </trkpt>
      <trkpt lat="44.5932" lon="2.22766">
        <ele>195</ele>
        <time>2021-05-09T09:32:20+02:00</time>
      </trkpt>
      <trkpt lat="44.5934" lon="2.22749">
        <ele>193</ele>
        <time>2021-05-09T09:32:39+02:00</time>
      </trkpt>
      <trkpt lat="44.59361" lon="2.22733">
        <ele>192</ele>
        <time>2021-05-09T09:32:58+02:00</time>
      </trkpt>
      <trkpt lat="44.59382" lon="2.22721">
        <ele>192</ele>
        <time>2021-05-09T09:33:17+02:00</time>
      </trkpt>
      <trkpt lat="44.59404" lon="2.22711">
        <ele>191</ele>
        <time>2021-05-09T09:33:35+02:00</time>
      </trkpt>
      <trkpt lat="44.59426" lon="2.22701">
        <ele>191</ele>
        <time>2021-05-09T09:33:53+02:00</time>
      </trkpt>
      <trkpt lat="44.59448" lon="2.22689">
        <ele>191</ele>
        <time>2021-05-09T09:34:12+02:00</time>
      </trkpt>
      <trkpt lat="44.59466" lon="2.22669">
        <ele>190</ele>
        <time>2021-05-09T09:34:31+02:00</time>
      </trkpt>
      <trkpt lat="44.59489" lon="2.22661">
        <ele>192</ele>
        <time>2021-05-09T09:34:52+02:00</time>
      </trkpt>
      <trkpt lat="44.59512" lon="2.22662">
        <ele>194</ele>
        <time>2021-05-09T09:35:12+02:00</time>
      </trkpt>
      <trkpt lat="44.59535" lon="2.22661">
        <ele>198</ele>
        <time>2021-05-09T09:35:44+02:00</time>
      </trkpt>
      <trkpt lat="44.59557" lon="2.22669">
        <ele>201</ele>
        <time>2021-05-09T09:36:10+02:00</time>
      </trkpt>
      <trkpt lat="44.59579" lon="2.22677">
        <ele>204</ele>
        <time>2021-05-09T09:36:34+02:00</time>
      </trkpt>
      <trkpt lat="44.59602" lon="2.22681">
        <ele>208</ele>
        <time>2021-05-09T09:37:08+02:00</time>
      </trkpt>
      <trkpt lat="44.59624" lon="2.22683">
        <ele>210</ele>
        <time>2021-05-09T09:37:41+02:00</time>
      </trkpt>
      <trkpt lat="44.59646" lon="2.22673">
        <ele>216</ele>
        <time>2021-05-09T09:38:10+02:00</time>
      </trkpt>
      <trkpt lat="44.59666" lon="2.22656">
        <ele>219</ele>
        <time>2021-05-09T09:38:39+02:00</time>
      </trkpt>
      <trkpt lat="44.59686" lon="2.22641">
        <ele>224</ele>
        <time>2021-05-09T09:39:08+02:00</time>
      </trkpt>
      <trkpt lat="44.59708" lon="2.2263">
        <ele>228</ele>
        <time>2021-05-09T09:39:34+02:00</time>
      </trkpt>
      <trkpt lat="44.5973" lon="2.22633">
        <ele>233</ele>
        <time>2021-05-09T09:40:10+02:00</time>
      </trkpt>
      <trkpt lat="44.59752" lon="2.22639">
        <ele>239</ele>
        <time>2021-05-09T09:40:45+02:00</time>
      </trkpt>
      <trkpt lat="44.59775" lon="2.22647">
        <ele>242</ele>
        <time>2021-05-09T09:41:20+02:00</time>
      </trkpt>
      <trkpt lat="44.59797" lon="2.22655">
        <ele>245</ele>
        <time>2021-05-09T09:41:46+02:00</time>
      </trkpt>
      <trkpt lat="44.59819" lon="2.22663">
        <ele>248</ele>
        <time>2021-05-09T09:42:12+02:00</time>
      </trkpt>
      <trkpt lat="44.59841" lon="2.22672">
        <ele>252</ele>
        <time>2021-05-09T09:42:40+02:00</time>
      </trkpt>
      <trkpt lat="44.59862" lon="2.22683">
        <ele>256</ele>
        <time>2021-05-09T09:43:07+02:00</time>
      </trkpt>
      <trkpt lat="44.59884" lon="2.22695">
        <ele>260</ele>
        <time>2021-05-09T09:43:36+02:00</time>
      </trkpt>
      <trkpt lat="44.59907" lon="2.22694">
        <ele>264</ele>
        <time>2021-05-09T09:44:02+02:00</time>
      </trkpt>
      <trkpt lat="44.59929" lon="2.22696">
        <ele>266</ele>
        <time>2021-05-09T09:44:27+02:00</time>
      </trkpt>
      <trkpt lat="44.59952" lon="2.22698">
        <ele>270</ele>
        <time>2021-05-09T09:44:53+02:00</time>
      </trkpt>
      <trkpt lat="44.59975" lon="2.22702">
        <ele>272</ele>
        <time>2021-05-09T09:45:19+02:00</time>
      </trkpt>
      <trkpt lat="44.59996" lon="2.22718">
        <ele>277</ele>
        <time>2021-05-09T09:45:44+02:00</time>
      </trkpt>
      <trkpt lat="44.60017" lon="2.22729">
        <ele>278</ele>
        <time>2021-05-09T09:46:10+02:00</time>
      </trkpt>
      <trkpt lat="44.6004" lon="2.22729">
        <ele>282</ele>
        <time>2021-05-09T09:46:36+02:00</time>
      </trkpt>
      <trkpt lat="44.60062" lon="2.2272">
        <ele>285</ele>
        <time>2021-05-09T09:47:01+02:00</time>
      </trkpt>
      <trkpt lat="44.60085" lon="2.22719">
        <ele>287</ele>
        <time>2021-05-09T09:47:30+02:00</time>
      </trkpt>
      <trkpt lat="44.60109" lon="2.22718">
        <ele>288</ele>
        <time>2021-05-09T09:49:31+02:00</time>
      </trkpt>
      <trkpt lat="44.60131" lon="2.22715">
        <ele>288</ele>
        <time>2021-05-09T09:49:57+02:00</time>
      </trkpt>
      <trkpt lat="44.60154" lon="2.2271">
        <ele>290</ele>
        <time>2021-05-09T09:50:23+02:00</time>
      </trkpt>
      <trkpt lat="44.60177" lon="2.22703">
        <ele>290</ele>
        <time>2021-05-09T09:50:50+02:00</time>
      </trkpt>
      <trkpt lat="44.60199" lon="2.22694">
        <ele>294</ele>
        <time>2021-05-09T09:51:17+02:00</time>
      </trkpt>
      <trkpt lat="44.60221" lon="2.2269">
        <ele>295</ele>
        <time>2021-05-09T09:52:16+02:00</time>
      </trkpt>
      <trkpt lat="44.60244" lon="2.22687">
        <ele>298</ele>
        <time>2021-05-09T09:52:44+02:00</time>
      </trkpt>
      <trkpt lat="44.60267" lon="2.22685">
        <ele>300</ele>
        <time>2021-05-09T09:53:06+02:00</time>
      </trkpt>
      <trkpt lat="44.6029" lon="2.22681">
        <ele>303</ele>
        <time>2021-05-09T09:53:30+02:00</time>
      </trkpt>
      <trkpt lat="44.60313" lon="2.22674">
        <ele>306</ele>
        <time>2021-05-09T09:53:52+02:00</time>
      </trkpt>
      <trkpt lat="44.60335" lon="2.22667">
        <ele>308</ele>
        <time>2021-05-09T09:54:13+02:00</time>
      </trkpt>
      <trkpt lat="44.60357" lon="2.22657">
        <ele>313</ele>
        <time>2021-05-09T09:54:36+02:00</time>
      </trkpt>
      <trkpt lat="44.6038" lon="2.22653">
        <ele>316</ele>
        <time>2021-05-09T09:54:58+02:00</time>
      </trkpt>
      <trkpt lat="44.60404" lon="2.22652">
        <ele>317</ele>
        <time>2021-05-09T09:55:20+02:00</time>
      </trkpt>
      <trkpt lat="44.60427" lon="2.22651">
        <ele>320</ele>
        <time>2021-05-09T09:55:45+02:00</time>
      </trkpt>
      <trkpt lat="44.6045" lon="2.22647">
        <ele>320</ele>
        <time>2021-05-09T09:56:10+02:00</time>
      </trkpt>
      <trkpt lat="44.6047" lon="2.22632">
        <ele>322</ele>
        <time>2021-05-09T09:56:32+02:00</time>
      </trkpt>
      <trkpt lat="44.60489" lon="2.22614">
        <ele>324</ele>
        <time>2021-05-09T09:56:52+02:00</time>
      </trkpt>
      <trkpt lat="44.6051" lon="2.226">
        <ele>326</ele>
        <time>2021-05-09T09:57:13+02:00</time>
      </trkpt>
      <trkpt lat="44.60532" lon="2.22587">
        <ele>326</ele>
        <time>2021-05-09T09:57:32+02:00</time>
      </trkpt>
      <trkpt lat="44.60538" lon="2.22557">
        <ele>328</ele>
        <time>2021-05-09T09:57:53+02:00</time>
      </trkpt>
      <trkpt lat="44.60557" lon="2.2254">
        <ele>329</ele>
        <time>2021-05-09T09:58:18+02:00</time>
      </trkpt>
      <trkpt lat="44.6058" lon="2.22535">
        <ele>328</ele>
        <time>2021-05-09T09:58:38+02:00</time>
      </trkpt>
      <trkpt lat="44.60603" lon="2.22532">
        <ele>327</ele>
        <time>2021-05-09T09:58:58+02:00</time>
      </trkpt>
      <trkpt lat="44.60626" lon="2.22527">
        <ele>325</ele>
        <time>2021-05-09T09:59:18+02:00</time>
      </trkpt>
      <trkpt lat="44.60647" lon="2.22516">
        <ele>324</ele>
        <time>2021-05-09T09:59:40+02:00</time>
      </trkpt>
      <trkpt lat="44.6067" lon="2.22509">
        <ele>325</ele>
        <time>2021-05-09T09:59:59+02:00</time>
      </trkpt>
      <trkpt lat="44.60692" lon="2.22498">
        <ele>326</ele>
        <time>2021-05-09T10:00:18+02:00</time>
      </trkpt>
      <trkpt lat="44.60714" lon="2.22489">
        <ele>324</ele>
        <time>2021-05-09T10:00:37+02:00</time>
      </trkpt>
      <trkpt lat="44.60737" lon="2.2248">
        <ele>325</ele>
        <time>2021-05-09T10:00:56+02:00</time>
      </trkpt>
      <trkpt lat="44.6076" lon="2.22472">
        <ele>326</ele>
        <time>2021-05-09T10:01:14+02:00</time>
      </trkpt>
      <trkpt lat="44.60781" lon="2.22461">
        <ele>325</ele>
        <time>2021-05-09T10:01:33+02:00</time>
      </trkpt>
      <trkpt lat="44.60804" lon="2.22455">
        <ele>324</ele>
        <time>2021-05-09T10:01:51+02:00</time>
      </trkpt>
      <trkpt lat="44.60826" lon="2.22447">
        <ele>324</ele>
        <time>2021-05-09T10:02:10+02:00</time>
      </trkpt>
      <trkpt lat="44.60848" lon="2.22437">
        <ele>322</ele>
        <time>2021-05-09T10:02:30+02:00</time>
      </trkpt>
      <trkpt lat="44.60871" lon="2.2243">
        <ele>321</ele>
        <time>2021-05-09T10:02:47+02:00</time>
      </trkpt>
      <trkpt lat="44.60893" lon="2.2242">
        <ele>317</ele>
        <time>2021-05-09T10:03:10+02:00</time>
      </trkpt>
      <trkpt lat="44.60913" lon="2.22403">
        <ele>316</ele>
        <time>2021-05-09T10:03:32+02:00</time>
      </trkpt>
      <trkpt lat="44.60934" lon="2.22391">
        <ele>312</ele>
        <time>2021-05-09T10:03:56+02:00</time>
      </trkpt>
      <trkpt lat="44.60955" lon="2.22378">
        <ele>312</ele>
        <time>2021-05-09T10:04:16+02:00</time>
      </trkpt>
      <trkpt lat="44.60977" lon="2.22366">
        <ele>314</ele>
        <time>2021-05-09T10:04:48+02:00</time>
      </trkpt>
      <trkpt lat="44.60999" lon="2.22356">
        <ele>313</ele>
        <time>2021-05-09T10:05:14+02:00</time>
      </trkpt>
      <trkpt lat="44.61016" lon="2.22333">
        <ele>313</ele>
        <time>2021-05-09T10:05:35+02:00</time>
      </trkpt>
      <trkpt lat="44.61026" lon="2.22303">
        <ele>316</ele>
        <time>2021-05-09T10:05:55+02:00</time>
      </trkpt>
      <trkpt lat="44.61026" lon="2.22271">
        <ele>319</ele>
        <time>2021-05-09T10:06:16+02:00</time>
      </trkpt>
      <trkpt lat="44.61029" lon="2.22238">
        <ele>320</ele>
        <time>2021-05-09T10:06:38+02:00</time>
      </trkpt>
      <trkpt lat="44.61033" lon="2.22207">
        <ele>318</ele>
        <time>2021-05-09T10:06:59+02:00</time>
      </trkpt>
      <trkpt lat="44.6104" lon="2.22176">
        <ele>318</ele>
        <time>2021-05-09T10:07:18+02:00</time>
      </trkpt>
      <trkpt lat="44.6105" lon="2.22146">
        <ele>318</ele>
        <time>2021-05-09T10:07:39+02:00</time>
      </trkpt>
      <trkpt lat="44.61062" lon="2.22119">
        <ele>319</ele>
        <time>2021-05-09T10:08:00+02:00</time>
      </trkpt>
      <trkpt lat="44.61077" lon="2.22094">
        <ele>319</ele>
        <time>2021-05-09T10:08:20+02:00</time>
      </trkpt>
      <trkpt lat="44.61093" lon="2.22069">
        <ele>321</ele>
        <time>2021-05-09T10:08:41+02:00</time>
      </trkpt>
      <trkpt lat="44.61106" lon="2.22042">
        <ele>322</ele>
        <time>2021-05-09T10:09:03+02:00</time>
      </trkpt>
      <trkpt lat="44.61121" lon="2.22018">
        <ele>323</ele>
        <time>2021-05-09T10:09:23+02:00</time>
      </trkpt>
      <trkpt lat="44.61135" lon="2.21993">
        <ele>323</ele>
        <time>2021-05-09T10:09:45+02:00</time>
      </trkpt>
      <trkpt lat="44.61149" lon="2.21968">
        <ele>324</ele>
        <time>2021-05-09T10:10:07+02:00</time>
      </trkpt>
      <trkpt lat="44.61163" lon="2.21943">
        <ele>324</ele>
        <time>2021-05-09T10:10:30+02:00</time>
      </trkpt>
      <trkpt lat="44.61177" lon="2.21918">
        <ele>325</ele>
        <time>2021-05-09T10:10:52+02:00</time>
      </trkpt>
      <trkpt lat="44.61192" lon="2.21894">
        <ele>326</ele>
        <time>2021-05-09T10:11:16+02:00</time>
      </trkpt>
      <trkpt lat="44.6121" lon="2.2187">
        <ele>327</ele>
        <time>2021-05-09T10:11:38+02:00</time>
      </trkpt>
      <trkpt lat="44.61225" lon="2.21846">
        <ele>328</ele>
        <time>2021-05-09T10:12:01+02:00</time>
      </trkpt>
      <trkpt lat="44.61243" lon="2.21826">
        <ele>326</ele>
        <time>2021-05-09T10:12:21+02:00</time>
      </trkpt>
      <trkpt lat="44.6126" lon="2.21804">
        <ele>328</ele>
        <time>2021-05-09T10:12:42+02:00</time>
      </trkpt>
      <trkpt lat="44.61274" lon="2.2178">
        <ele>328</ele>
        <time>2021-05-09T10:13:05+02:00</time>
      </trkpt>
      <trkpt lat="44.61283" lon="2.21748">
        <ele>328</ele>
        <time>2021-05-09T10:13:28+02:00</time>
      </trkpt>
      <trkpt lat="44.61289" lon="2.21717">
        <ele>327</ele>
        <time>2021-05-09T10:13:51+02:00</time>
      </trkpt>
      <trkpt lat="44.61289" lon="2.21685">
        <ele>326</ele>
        <time>2021-05-09T10:14:15+02:00</time>
      </trkpt>
      <trkpt lat="44.61294" lon="2.21653">
        <ele>326</ele>
        <time>2021-05-09T10:14:40+02:00</time>
      </trkpt>
      <trkpt lat="44.61301" lon="2.21622">
        <ele>328</ele>
        <time>2021-05-09T10:15:02+02:00</time>
      </trkpt>
      <trkpt lat="44.61313" lon="2.21595">
        <ele>328</ele>
        <time>2021-05-09T10:15:25+02:00</time>
      </trkpt>
      <trkpt lat="44.61317" lon="2.21564">
        <ele>330</ele>
        <time>2021-05-09T10:15:51+02:00</time>
      </trkpt>
      <trkpt lat="44.61319" lon="2.21531">
        <ele>332</ele>
        <time>2021-05-09T10:16:14+02:00</time>
      </trkpt>
      <trkpt lat="44.61317" lon="2.21499">
        <ele>332</ele>
        <time>2021-05-09T10:16:38+02:00</time>
      </trkpt>
      <trkpt lat="44.61313" lon="2.21468">
        <ele>334</ele>
        <time>2021-05-09T10:17:00+02:00</time>
      </trkpt>
      <trkpt lat="44.6131" lon="2.21436">
        <ele>334</ele>
        <time>2021-05-09T10:17:20+02:00</time>
      </trkpt>
      <trkpt lat="44.61317" lon="2.21405">
        <ele>338</ele>
        <time>2021-05-09T10:17:49+02:00</time>
      </trkpt>
      <trkpt lat="44.6133" lon="2.21379">
        <ele>338</ele>
        <time>2021-05-09T10:18:11+02:00</time>
      </trkpt>
      <trkpt lat="44.61347" lon="2.21359">
        <ele>339</ele>
        <time>2021-05-09T10:18:34+02:00</time>
      </trkpt>
      <trkpt lat="44.61365" lon="2.21336">
        <ele>339</ele>
        <time>2021-05-09T10:18:55+02:00</time>
      </trkpt>
      <trkpt lat="44.61378" lon="2.21309">
        <ele>339</ele>
        <time>2021-05-09T10:19:17+02:00</time>
      </trkpt>
      <trkpt lat="44.61386" lon="2.2128">
        <ele>341</ele>
        <time>2021-05-09T10:19:38+02:00</time>
      </trkpt>
      <trkpt lat="44.61397" lon="2.21251">
        <ele>343</ele>
        <time>2021-05-09T10:19:59+02:00</time>
      </trkpt>
      <trkpt lat="44.61401" lon="2.2122">
        <ele>346</ele>
        <time>2021-05-09T10:20:27+02:00</time>
      </trkpt>
      <trkpt lat="44.6141" lon="2.21191">
        <ele>349</ele>
        <time>2021-05-09T10:20:53+02:00</time>
      </trkpt>
      <trkpt lat="44.61419" lon="2.21161">
        <ele>351</ele>
        <time>2021-05-09T10:21:16+02:00</time>
      </trkpt>
      <trkpt lat="44.61429" lon="2.21132">
        <ele>353</ele>
        <time>2021-05-09T10:21:39+02:00</time>
      </trkpt>
      <trkpt lat="44.61442" lon="2.21105">
        <ele>355</ele>
        <time>2021-05-09T10:22:02+02:00</time>
      </trkpt>
      <trkpt lat="44.61453" lon="2.21078">
        <ele>354</ele>
        <time>2021-05-09T10:22:27+02:00</time>
      </trkpt>
      <trkpt lat="44.61467" lon="2.21053">
        <ele>357</ele>
        <time>2021-05-09T10:24:42+02:00</time>
      </trkpt>
      <trkpt lat="44.61481" lon="2.21028">
        <ele>360</ele>
        <time>2021-05-09T10:25:09+02:00</time>
      </trkpt>
      <trkpt lat="44.61495" lon="2.21001">
        <ele>362</ele>
        <time>2021-05-09T10:25:31+02:00</time>
      </trkpt>
      <trkpt lat="44.61496" lon="2.20969">
        <ele>365</ele>
        <time>2021-05-09T10:25:52+02:00</time>
      </trkpt>
      <trkpt lat="44.61507" lon="2.20939">
        <ele>367</ele>
        <time>2021-05-09T10:26:15+02:00</time>
      </trkpt>
      <trkpt lat="44.6152" lon="2.20913">
        <ele>367</ele>
        <time>2021-05-09T10:26:39+02:00</time>
      </trkpt>
      <trkpt lat="44.61536" lon="2.2089">
        <ele>370</ele>
        <time>2021-05-09T10:27:05+02:00</time>
      </trkpt>
      <trkpt lat="44.6155" lon="2.20864">
        <ele>372</ele>
        <time>2021-05-09T10:27:30+02:00</time>
      </trkpt>
      <trkpt lat="44.61563" lon="2.20837">
        <ele>373</ele>
        <time>2021-05-09T10:27:53+02:00</time>
      </trkpt>
      <trkpt lat="44.61575" lon="2.20811">
        <ele>375</ele>
        <time>2021-05-09T10:28:16+02:00</time>
      </trkpt>
      <trkpt lat="44.61581" lon="2.2078">
        <ele>377</ele>
        <time>2021-05-09T10:28:38+02:00</time>
      </trkpt>
      <trkpt lat="44.61586" lon="2.20748">
        <ele>380</ele>
        <time>2021-05-09T10:28:59+02:00</time>
      </trkpt>
      <trkpt lat="44.61589" lon="2.20716">
        <ele>381</ele>
        <time>2021-05-09T10:29:26+02:00</time>
      </trkpt>
      <trkpt lat="44.61596" lon="2.20686">
        <ele>384</ele>
        <time>2021-05-09T10:30:46+02:00</time>
      </trkpt>
      <trkpt lat="44.61608" lon="2.20659">
        <ele>383</ele>
        <time>2021-05-09T10:31:05+02:00</time>
      </trkpt>
      <trkpt lat="44.61616" lon="2.20629">
        <ele>389</ele>
        <time>2021-05-09T10:31:25+02:00</time>
      </trkpt>
      <trkpt lat="44.61625" lon="2.20598">
        <ele>390</ele>
        <time>2021-05-09T10:31:46+02:00</time>
      </trkpt>
      <trkpt lat="44.61636" lon="2.2057">
        <ele>391</ele>
        <time>2021-05-09T10:32:07+02:00</time>
      </trkpt>
      <trkpt lat="44.6165" lon="2.20544">
        <ele>392</ele>
        <time>2021-05-09T10:32:28+02:00</time>
      </trkpt>
      <trkpt lat="44.61657" lon="2.20512">
        <ele>393</ele>
        <time>2021-05-09T10:32:48+02:00</time>
      </trkpt>
      <trkpt lat="44.61665" lon="2.2048">
        <ele>393</ele>
        <time>2021-05-09T10:33:12+02:00</time>
      </trkpt>
      <trkpt lat="44.61669" lon="2.20448">
        <ele>397</ele>
        <time>2021-05-09T10:33:33+02:00</time>
      </trkpt>
      <trkpt lat="44.61671" lon="2.20415">
        <ele>394</ele>
        <time>2021-05-09T10:33:54+02:00</time>
      </trkpt>
      <trkpt lat="44.61672" lon="2.20382">
        <ele>397</ele>
        <time>2021-05-09T10:34:13+02:00</time>
      </trkpt>
      <trkpt lat="44.61675" lon="2.20351">
        <ele>396</ele>
        <time>2021-05-09T10:34:33+02:00</time>
      </trkpt>
      <trkpt lat="44.61677" lon="2.20318">
        <ele>397</ele>
        <time>2021-05-09T10:34:54+02:00</time>
      </trkpt>
      <trkpt lat="44.61678" lon="2.20286">
        <ele>396</ele>
        <time>2021-05-09T10:35:13+02:00</time>
      </trkpt>
      <trkpt lat="44.61678" lon="2.20255">
        <ele>398</ele>
        <time>2021-05-09T10:35:32+02:00</time>
      </trkpt>
      <trkpt lat="44.61681" lon="2.20223">
        <ele>398</ele>
        <time>2021-05-09T10:35:51+02:00</time>
      </trkpt>
      <trkpt lat="44.61683" lon="2.20191">
        <ele>400</ele>
        <time>2021-05-09T10:36:09+02:00</time>
      </trkpt>
      <trkpt lat="44.61686" lon="2.20159">
        <ele>400</ele>
        <time>2021-05-09T10:36:27+02:00</time>
      </trkpt>
      <trkpt lat="44.61685" lon="2.20126">
        <ele>400</ele>
        <time>2021-05-09T10:36:46+02:00</time>
      </trkpt>
      <trkpt lat="44.61683" lon="2.20095">
        <ele>397</ele>
        <time>2021-05-09T10:37:05+02:00</time>
      </trkpt>
      <trkpt lat="44.61677" lon="2.20063">
        <ele>399</ele>
        <time>2021-05-09T10:37:24+02:00</time>
      </trkpt>
      <trkpt lat="44.61668" lon="2.20033">
        <ele>400</ele>
        <time>2021-05-09T10:37:43+02:00</time>
      </trkpt>
      <trkpt lat="44.61661" lon="2.20002">
        <ele>400</ele>
        <time>2021-05-09T10:38:02+02:00</time>
      </trkpt>
      <trkpt lat="44.6165" lon="2.19975">
        <ele>400</ele>
        <time>2021-05-09T10:38:21+02:00</time>
      </trkpt>
      <trkpt lat="44.61631" lon="2.19955">
        <ele>399</ele>
        <time>2021-05-09T10:38:41+02:00</time>
      </trkpt>
      <trkpt lat="44.6161" lon="2.19942">
        <ele>401</ele>
        <time>2021-05-09T10:38:58+02:00</time>
      </trkpt>
      <trkpt lat="44.61589" lon="2.19927">
        <ele>402</ele>
        <time>2021-05-09T10:39:15+02:00</time>
      </trkpt>
      <trkpt lat="44.61587" lon="2.19895">
        <ele>400</ele>
        <time>2021-05-09T10:39:37+02:00</time>
      </trkpt>
      <trkpt lat="44.616" lon="2.19867">
        <ele>397</ele>
        <time>2021-05-09T10:39:55+02:00</time>
      </trkpt>
      <trkpt lat="44.6161" lon="2.19838">
        <ele>397</ele>
        <time>2021-05-09T10:40:13+02:00</time>
      </trkpt>
      <trkpt lat="44.61621" lon="2.19809">
        <ele>401</ele>
        <time>2021-05-09T10:40:33+02:00</time>
      </trkpt>
      <trkpt lat="44.61634" lon="2.19782">
        <ele>401</ele>
        <time>2021-05-09T10:40:52+02:00</time>
      </trkpt>
      <trkpt lat="44.6164" lon="2.1975">
        <ele>400</ele>
        <time>2021-05-09T10:41:12+02:00</time>
      </trkpt>
      <trkpt lat="44.6164" lon="2.19718">
        <ele>399</ele>
        <time>2021-05-09T10:41:30+02:00</time>
      </trkpt>
      <trkpt lat="44.61636" lon="2.19686">
        <ele>401</ele>
        <time>2021-05-09T10:41:48+02:00</time>
      </trkpt>
      <trkpt lat="44.61648" lon="2.19657">
        <ele>402</ele>
        <time>2021-05-09T10:42:08+02:00</time>
      </trkpt>
      <trkpt lat="44.61666" lon="2.19638">
        <ele>399</ele>
        <time>2021-05-09T10:42:27+02:00</time>
      </trkpt>
      <trkpt lat="44.6168" lon="2.19612">
        <ele>401</ele>
        <time>2021-05-09T10:42:44+02:00</time>
      </trkpt>
      <trkpt lat="44.61688" lon="2.19581">
        <ele>404</ele>
        <time>2021-05-09T10:43:03+02:00</time>
      </trkpt>
      <trkpt lat="44.61696" lon="2.1955">
        <ele>405</ele>
        <time>2021-05-09T10:43:21+02:00</time>
      </trkpt>
      <trkpt lat="44.61698" lon="2.19518">
        <ele>405</ele>
        <time>2021-05-09T10:43:39+02:00</time>
      </trkpt>
      <trkpt lat="44.61699" lon="2.19486">
        <ele>404</ele>
        <time>2021-05-09T10:43:58+02:00</time>
      </trkpt>
      <trkpt lat="44.617" lon="2.19454">
        <ele>400</ele>
        <time>2021-05-09T10:44:17+02:00</time>
      </trkpt>
      <trkpt lat="44.61699" lon="2.19421">
        <ele>399</ele>
        <time>2021-05-09T10:44:36+02:00</time>
      </trkpt>
      <trkpt lat="44.61699" lon="2.19389">
        <ele>399</ele>
        <time>2021-05-09T10:44:54+02:00</time>
      </trkpt>
      <trkpt lat="44.617" lon="2.19356">
        <ele>399</ele>
        <time>2021-05-09T10:45:13+02:00</time>
      </trkpt>
      <trkpt lat="44.61699" lon="2.19324">
        <ele>397</ele>
        <time>2021-05-09T10:45:32+02:00</time>
      </trkpt>
      <trkpt lat="44.61704" lon="2.19292">
        <ele>396</ele>
        <time>2021-05-09T10:45:51+02:00</time>
      </trkpt>
      <trkpt lat="44.61717" lon="2.19264">
        <ele>395</ele>
        <time>2021-05-09T10:46:11+02:00</time>
      </trkpt>
      <trkpt lat="44.61738" lon="2.19249">
        <ele>396</ele>
        <time>2021-05-09T10:46:33+02:00</time>
      </trkpt>
      <trkpt lat="44.61757" lon="2.19231">
        <ele>398</ele>
        <time>2021-05-09T10:46:54+02:00</time>
      </trkpt>
      <trkpt lat="44.61774" lon="2.19209">
        <ele>401</ele>
        <time>2021-05-09T10:47:15+02:00</time>
      </trkpt>
      <trkpt lat="44.61789" lon="2.19186">
        <ele>404</ele>
        <time>2021-05-09T10:47:36+02:00</time>
      </trkpt>
      <trkpt lat="44.61804" lon="2.19161">
        <ele>407</ele>
        <time>2021-05-09T10:47:57+02:00</time>
      </trkpt>
      <trkpt lat="44.61815" lon="2.19133">
        <ele>408</ele>
        <time>2021-05-09T10:48:18+02:00</time>
      </trkpt>
      <trkpt lat="44.61828" lon="2.19105">
        <ele>410</ele>
        <time>2021-05-09T10:48:38+02:00</time>
      </trkpt>
      <trkpt lat="44.61837" lon="2.19076">
        <ele>412</ele>
        <time>2021-05-09T10:49:03+02:00</time>
      </trkpt>
      <trkpt lat="44.61814" lon="2.19075">
        <ele>409</ele>
        <time>2021-05-09T10:50:31+02:00</time>
      </trkpt>
      <trkpt lat="44.61837" lon="2.19063">
        <ele>410</ele>
        <time>2021-05-09T10:53:46+02:00</time>
      </trkpt>
      <trkpt lat="44.61824" lon="2.19036">
        <ele>412</ele>
        <time>2021-05-09T10:54:13+02:00</time>
      </trkpt>
      <trkpt lat="44.61804" lon="2.19021">
        <ele>409</ele>
        <time>2021-05-09T10:55:14+02:00</time>
      </trkpt>
      <trkpt lat="44.61784" lon="2.19008">
        <ele>407</ele>
        <time>2021-05-09T10:55:35+02:00</time>
      </trkpt>
      <trkpt lat="44.61767" lon="2.18987">
        <ele>405</ele>
        <time>2021-05-09T10:55:59+02:00</time>
      </trkpt>
      <trkpt lat="44.61752" lon="2.18962">
        <ele>403</ele>
        <time>2021-05-09T10:56:18+02:00</time>
      </trkpt>
      <trkpt lat="44.61737" lon="2.18938">
        <ele>401</ele>
        <time>2021-05-09T10:56:37+02:00</time>
      </trkpt>
      <trkpt lat="44.61725" lon="2.18909">
        <ele>398</ele>
        <time>2021-05-09T10:56:56+02:00</time>
      </trkpt>
      <trkpt lat="44.61712" lon="2.18882">
        <ele>394</ele>
        <time>2021-05-09T10:57:15+02:00</time>
      </trkpt>
      <trkpt lat="44.61701" lon="2.18852">
        <ele>393</ele>
        <time>2021-05-09T10:57:32+02:00</time>
      </trkpt>
      <trkpt lat="44.6171" lon="2.18822">
        <ele>391</ele>
        <time>2021-05-09T10:57:50+02:00</time>
      </trkpt>
      <trkpt lat="44.61726" lon="2.18799">
        <ele>388</ele>
        <time>2021-05-09T10:58:08+02:00</time>
      </trkpt>
      <trkpt lat="44.61747" lon="2.18786">
        <ele>386</ele>
        <time>2021-05-09T10:58:26+02:00</time>
      </trkpt>
      <trkpt lat="44.6177" lon="2.18783">
        <ele>383</ele>
        <time>2021-05-09T10:58:42+02:00</time>
      </trkpt>
      <trkpt lat="44.61794" lon="2.18786">
        <ele>383</ele>
        <time>2021-05-09T10:58:59+02:00</time>
      </trkpt>
      <trkpt lat="44.61817" lon="2.18786">
        <ele>379</ele>
        <time>2021-05-09T10:59:16+02:00</time>
      </trkpt>
      <trkpt lat="44.6184" lon="2.18784">
        <ele>377</ele>
        <time>2021-05-09T10:59:33+02:00</time>
      </trkpt>
      <trkpt lat="44.61863" lon="2.18779">
        <ele>375</ele>
        <time>2021-05-09T10:59:50+02:00</time>
      </trkpt>
      <trkpt lat="44.61882" lon="2.18762">
        <ele>371</ele>
        <time>2021-05-09T11:00:06+02:00</time>
      </trkpt>
      <trkpt lat="44.61896" lon="2.18736">
        <ele>368</ele>
        <time>2021-05-09T11:00:25+02:00</time>
      </trkpt>
      <trkpt lat="44.61908" lon="2.18708">
        <ele>365</ele>
        <time>2021-05-09T11:00:43+02:00</time>
      </trkpt>
      <trkpt lat="44.61914" lon="2.18678">
        <ele>362</ele>
        <time>2021-05-09T11:01:01+02:00</time>
      </trkpt>
      <trkpt lat="44.61914" lon="2.18645">
        <ele>359</ele>
        <time>2021-05-09T11:01:19+02:00</time>
      </trkpt>
      <trkpt lat="44.61918" lon="2.18612">
        <ele>357</ele>
        <time>2021-05-09T11:01:39+02:00</time>
      </trkpt>
      <trkpt lat="44.61916" lon="2.1858">
        <ele>359</ele>
        <time>2021-05-09T11:01:55+02:00</time>
      </trkpt>
      <trkpt lat="44.61915" lon="2.18549">
        <ele>359</ele>
        <time>2021-05-09T11:02:12+02:00</time>
      </trkpt>
      <trkpt lat="44.61915" lon="2.18517">
        <ele>360</ele>
        <time>2021-05-09T11:02:30+02:00</time>
      </trkpt>
      <trkpt lat="44.61919" lon="2.18485">
        <ele>363</ele>
        <time>2021-05-09T11:02:48+02:00</time>
      </trkpt>
      <trkpt lat="44.6192" lon="2.18454">
        <ele>365</ele>
        <time>2021-05-09T11:03:06+02:00</time>
      </trkpt>
      <trkpt lat="44.61919" lon="2.18421">
        <ele>366</ele>
        <time>2021-05-09T11:03:25+02:00</time>
      </trkpt>
      <trkpt lat="44.6192" lon="2.18387">
        <ele>369</ele>
        <time>2021-05-09T11:03:44+02:00</time>
      </trkpt>
      <trkpt lat="44.6192" lon="2.18355">
        <ele>370</ele>
        <time>2021-05-09T11:04:03+02:00</time>
      </trkpt>
      <trkpt lat="44.61921" lon="2.18322">
        <ele>372</ele>
        <time>2021-05-09T11:04:21+02:00</time>
      </trkpt>
      <trkpt lat="44.61921" lon="2.18289">
        <ele>375</ele>
        <time>2021-05-09T11:04:40+02:00</time>
      </trkpt>
      <trkpt lat="44.61925" lon="2.18258">
        <ele>377</ele>
        <time>2021-05-09T11:04:59+02:00</time>
      </trkpt>
      <trkpt lat="44.61932" lon="2.18225">
        <ele>378</ele>
        <time>2021-05-09T11:05:18+02:00</time>
      </trkpt>
      <trkpt lat="44.61933" lon="2.18193">
        <ele>381</ele>
        <time>2021-05-09T11:05:36+02:00</time>
      </trkpt>
      <trkpt lat="44.6192" lon="2.18167">
        <ele>381</ele>
        <time>2021-05-09T11:05:54+02:00</time>
      </trkpt>
      <trkpt lat="44.61898" lon="2.18155">
        <ele>380</ele>
        <time>2021-05-09T11:06:12+02:00</time>
      </trkpt>
      <trkpt lat="44.61875" lon="2.18155">
        <ele>380</ele>
        <time>2021-05-09T11:06:30+02:00</time>
      </trkpt>
      <trkpt lat="44.61852" lon="2.18149">
        <ele>383</ele>
        <time>2021-05-09T11:06:47+02:00</time>
      </trkpt>
      <trkpt lat="44.6183" lon="2.18143">
        <ele>383</ele>
        <time>2021-05-09T11:07:04+02:00</time>
      </trkpt>
      <trkpt lat="44.61807" lon="2.18139">
        <ele>383</ele>
        <time>2021-05-09T11:07:23+02:00</time>
      </trkpt>
      <trkpt lat="44.61786" lon="2.18123">
        <ele>388</ele>
        <time>2021-05-09T11:07:43+02:00</time>
      </trkpt>
      <trkpt lat="44.61766" lon="2.18106">
        <ele>387</ele>
        <time>2021-05-09T11:08:01+02:00</time>
      </trkpt>
      <trkpt lat="44.61747" lon="2.18087">
        <ele>389</ele>
        <time>2021-05-09T11:08:19+02:00</time>
      </trkpt>
      <trkpt lat="44.61727" lon="2.18072">
        <ele>388</ele>
        <time>2021-05-09T11:08:37+02:00</time>
      </trkpt>
      <trkpt lat="44.61707" lon="2.18054">
        <ele>390</ele>
        <time>2021-05-09T11:08:56+02:00</time>
      </trkpt>
      <trkpt lat="44.61689" lon="2.18034">
        <ele>391</ele>
        <time>2021-05-09T11:09:13+02:00</time>
      </trkpt>
      <trkpt lat="44.61688" lon="2.18002">
        <ele>392</ele>
        <time>2021-05-09T11:09:33+02:00</time>
      </trkpt>
      <trkpt lat="44.617" lon="2.17973">
        <ele>393</ele>
        <time>2021-05-09T11:09:58+02:00</time>
      </trkpt>
      <trkpt lat="44.61709" lon="2.17944">
        <ele>392</ele>
        <time>2021-05-09T11:10:50+02:00</time>
      </trkpt>
      <trkpt lat="44.61715" lon="2.17913">
        <ele>391</ele>
        <time>2021-05-09T11:11:20+02:00</time>
      </trkpt>
      <trkpt lat="44.617" lon="2.17889">
        <ele>390</ele>
        <time>2021-05-09T11:11:44+02:00</time>
      </trkpt>
      <trkpt lat="44.61712" lon="2.17862">
        <ele>387</ele>
        <time>2021-05-09T11:12:07+02:00</time>
      </trkpt>
      <trkpt lat="44.61735" lon="2.1786">
        <ele>388</ele>
        <time>2021-05-09T11:12:28+02:00</time>
      </trkpt>
      <trkpt lat="44.61757" lon="2.17848">
        <ele>388</ele>
        <time>2021-05-09T11:12:48+02:00</time>
      </trkpt>
      <trkpt lat="44.61769" lon="2.1782">
        <ele>386</ele>
        <time>2021-05-09T11:13:09+02:00</time>
      </trkpt>
      <trkpt lat="44.61782" lon="2.17792">
        <ele>383</ele>
        <time>2021-05-09T11:13:30+02:00</time>
      </trkpt>
      <trkpt lat="44.61802" lon="2.17778">
        <ele>378</ele>
        <time>2021-05-09T11:13:52+02:00</time>
      </trkpt>
      <trkpt lat="44.61825" lon="2.17778">
        <ele>378</ele>
        <time>2021-05-09T11:14:12+02:00</time>
      </trkpt>
      <trkpt lat="44.61847" lon="2.17768">
        <ele>375</ele>
        <time>2021-05-09T11:14:31+02:00</time>
      </trkpt>
      <trkpt lat="44.61862" lon="2.17742">
        <ele>374</ele>
        <time>2021-05-09T11:14:51+02:00</time>
      </trkpt>
      <trkpt lat="44.61872" lon="2.17714">
        <ele>375</ele>
        <time>2021-05-09T11:15:11+02:00</time>
      </trkpt>
      <trkpt lat="44.61879" lon="2.17683">
        <ele>376</ele>
        <time>2021-05-09T11:15:32+02:00</time>
      </trkpt>
      <trkpt lat="44.6189" lon="2.17655">
        <ele>378</ele>
        <time>2021-05-09T11:15:53+02:00</time>
      </trkpt>
      <trkpt lat="44.61896" lon="2.17623">
        <ele>378</ele>
        <time>2021-05-09T11:16:12+02:00</time>
      </trkpt>
      <trkpt lat="44.61915" lon="2.17604">
        <ele>379</ele>
        <time>2021-05-09T11:16:33+02:00</time>
      </trkpt>
      <trkpt lat="44.61931" lon="2.17582">
        <ele>378</ele>
        <time>2021-05-09T11:17:04+02:00</time>
      </trkpt>
      <trkpt lat="44.61944" lon="2.17555">
        <ele>378</ele>
        <time>2021-05-09T11:17:22+02:00</time>
      </trkpt>
      <trkpt lat="44.61957" lon="2.17528">
        <ele>376</ele>
        <time>2021-05-09T11:17:40+02:00</time>
      </trkpt>
      <trkpt lat="44.61969" lon="2.17501">
        <ele>375</ele>
        <time>2021-05-09T11:17:58+02:00</time>
      </trkpt>
      <trkpt lat="44.61981" lon="2.17474">
        <ele>373</ele>
        <time>2021-05-09T11:18:16+02:00</time>
      </trkpt>
      <trkpt lat="44.61993" lon="2.17447">
        <ele>370</ele>
        <time>2021-05-09T11:18:44+02:00</time>
      </trkpt>
      <trkpt lat="44.61998" lon="2.17416">
        <ele>370</ele>
        <time>2021-05-09T11:19:01+02:00</time>
      </trkpt>
      <trkpt lat="44.61994" lon="2.17384">
        <ele>370</ele>
        <time>2021-05-09T11:19:19+02:00</time>
      </trkpt>
      <trkpt lat="44.61983" lon="2.17356">
        <ele>368</ele>
        <time>2021-05-09T11:19:36+02:00</time>
      </trkpt>
      <trkpt lat="44.61973" lon="2.17327">
        <ele>365</ele>
        <time>2021-05-09T11:19:53+02:00</time>
      </trkpt>
      <trkpt lat="44.61962" lon="2.17297">
        <ele>363</ele>
        <time>2021-05-09T11:20:11+02:00</time>
      </trkpt>
      <trkpt lat="44.61952" lon="2.17268">
        <ele>362</ele>
        <time>2021-05-09T11:20:29+02:00</time>
      </trkpt>
      <trkpt lat="44.61942" lon="2.17239">
        <ele>362</ele>
        <time>2021-05-09T11:20:47+02:00</time>
      </trkpt>
      <trkpt lat="44.61933" lon="2.17209">
        <ele>360</ele>
        <time>2021-05-09T11:21:06+02:00</time>
      </trkpt>
      <trkpt lat="44.61925" lon="2.17178">
        <ele>359</ele>
        <time>2021-05-09T11:21:24+02:00</time>
      </trkpt>
      <trkpt lat="44.6192" lon="2.17147">
        <ele>356</ele>
        <time>2021-05-09T11:21:41+02:00</time>
      </trkpt>
      <trkpt lat="44.61914" lon="2.17117">
        <ele>353</ele>
        <time>2021-05-09T11:21:57+02:00</time>
      </trkpt>
      <trkpt lat="44.6191" lon="2.17085">
        <ele>353</ele>
        <time>2021-05-09T11:22:15+02:00</time>
      </trkpt>
      <trkpt lat="44.61909" lon="2.17052">
        <ele>352</ele>
        <time>2021-05-09T11:22:33+02:00</time>
      </trkpt>
      <trkpt lat="44.61913" lon="2.17019">
        <ele>351</ele>
        <time>2021-05-09T11:22:51+02:00</time>
      </trkpt>
      <trkpt lat="44.61917" lon="2.16986">
        <ele>350</ele>
        <time>2021-05-09T11:23:10+02:00</time>
      </trkpt>
      <trkpt lat="44.6192" lon="2.16954">
        <ele>349</ele>
        <time>2021-05-09T11:23:29+02:00</time>
      </trkpt>
      <trkpt lat="44.61923" lon="2.16921">
        <ele>348</ele>
        <time>2021-05-09T11:23:57+02:00</time>
      </trkpt>
      <trkpt lat="44.61925" lon="2.16889">
        <ele>347</ele>
        <time>2021-05-09T11:24:13+02:00</time>
      </trkpt>
      <trkpt lat="44.61927" lon="2.16856">
        <ele>347</ele>
        <time>2021-05-09T11:24:31+02:00</time>
      </trkpt>
      <trkpt lat="44.61906" lon="2.16844">
        <ele>348</ele>
        <time>2021-05-09T11:24:50+02:00</time>
      </trkpt>
      <trkpt lat="44.61883" lon="2.16834">
        <ele>346</ele>
        <time>2021-05-09T11:25:07+02:00</time>
      </trkpt>
      <trkpt lat="44.6186" lon="2.16831">
        <ele>347</ele>
        <time>2021-05-09T11:25:26+02:00</time>
      </trkpt>
      <trkpt lat="44.61836" lon="2.16825">
        <ele>347</ele>
        <time>2021-05-09T11:25:44+02:00</time>
      </trkpt>
      <trkpt lat="44.61814" lon="2.1682">
        <ele>345</ele>
        <time>2021-05-09T11:26:02+02:00</time>
      </trkpt>
      <trkpt lat="44.61791" lon="2.16815">
        <ele>341</ele>
        <time>2021-05-09T11:26:18+02:00</time>
      </trkpt>
      <trkpt lat="44.61768" lon="2.16817">
        <ele>341</ele>
        <time>2021-05-09T11:26:35+02:00</time>
      </trkpt>
      <trkpt lat="44.61747" lon="2.16829">
        <ele>340</ele>
        <time>2021-05-09T11:26:53+02:00</time>
      </trkpt>
      <trkpt lat="44.61727" lon="2.16845">
        <ele>339</ele>
        <time>2021-05-09T11:27:10+02:00</time>
      </trkpt>
      <trkpt lat="44.61705" lon="2.16854">
        <ele>336</ele>
        <time>2021-05-09T11:27:28+02:00</time>
      </trkpt>
      <trkpt lat="44.61689" lon="2.16832">
        <ele>336</ele>
        <time>2021-05-09T11:27:55+02:00</time>
      </trkpt>
      <trkpt lat="44.61687" lon="2.16801">
        <ele>334</ele>
        <time>2021-05-09T11:28:16+02:00</time>
      </trkpt>
      <trkpt lat="44.61686" lon="2.16769">
        <ele>332</ele>
        <time>2021-05-09T11:28:36+02:00</time>
      </trkpt>
      <trkpt lat="44.61685" lon="2.16735">
        <ele>329</ele>
        <time>2021-05-09T11:28:57+02:00</time>
      </trkpt>
      <trkpt lat="44.6168" lon="2.16703">
        <ele>326</ele>
        <time>2021-05-09T11:29:17+02:00</time>
      </trkpt>
      <trkpt lat="44.61673" lon="2.16672">
        <ele>325</ele>
        <time>2021-05-09T11:29:35+02:00</time>
      </trkpt>
      <trkpt lat="44.61667" lon="2.16642">
        <ele>316</ele>
        <time>2021-05-09T11:30:08+02:00</time>
      </trkpt>
      <trkpt lat="44.6166" lon="2.16611">
        <ele>315</ele>
        <time>2021-05-09T11:30:28+02:00</time>
      </trkpt>
      <trkpt lat="44.61652" lon="2.1658">
        <ele>315</ele>
        <time>2021-05-09T11:30:48+02:00</time>
      </trkpt>
      <trkpt lat="44.61642" lon="2.16551">
        <ele>308</ele>
        <time>2021-05-09T11:31:19+02:00</time>
      </trkpt>
      <trkpt lat="44.61628" lon="2.16525">
        <ele>307</ele>
        <time>2021-05-09T11:31:48+02:00</time>
      </trkpt>
      <trkpt lat="44.61613" lon="2.16502">
        <ele>302</ele>
        <time>2021-05-09T11:32:15+02:00</time>
      </trkpt>
      <trkpt lat="44.61609" lon="2.1647">
        <ele>298</ele>
        <time>2021-05-09T11:32:41+02:00</time>
      </trkpt>
      <trkpt lat="44.61609" lon="2.16438">
        <ele>293</ele>
        <time>2021-05-09T11:35:51+02:00</time>
      </trkpt>
      <trkpt lat="44.61597" lon="2.1641">
        <ele>291</ele>
        <time>2021-05-09T11:36:10+02:00</time>
      </trkpt>
      <trkpt lat="44.61577" lon="2.16394">
        <ele>290</ele>
        <time>2021-05-09T11:36:32+02:00</time>
      </trkpt>
      <trkpt lat="44.61552" lon="2.16391">
        <ele>289</ele>
        <time>2021-05-09T11:36:50+02:00</time>
      </trkpt>
      <trkpt lat="44.61529" lon="2.16386">
        <ele>287</ele>
        <time>2021-05-09T11:37:09+02:00</time>
      </trkpt>
      <trkpt lat="44.61506" lon="2.16383">
        <ele>287</ele>
        <time>2021-05-09T11:37:27+02:00</time>
      </trkpt>
      <trkpt lat="44.61483" lon="2.16389">
        <ele>286</ele>
        <time>2021-05-09T11:37:45+02:00</time>
      </trkpt>
      <trkpt lat="44.6146" lon="2.16395">
        <ele>285</ele>
        <time>2021-05-09T11:38:05+02:00</time>
      </trkpt>
      <trkpt lat="44.61439" lon="2.16403">
        <ele>284</ele>
        <time>2021-05-09T11:38:24+02:00</time>
      </trkpt>
      <trkpt lat="44.61418" lon="2.16417">
        <ele>282</ele>
        <time>2021-05-09T11:38:42+02:00</time>
      </trkpt>
      <trkpt lat="44.61395" lon="2.16424">
        <ele>280</ele>
        <time>2021-05-09T11:39:05+02:00</time>
      </trkpt>
      <trkpt lat="44.61384" lon="2.16395">
        <ele>277</ele>
        <time>2021-05-09T11:52:56+02:00</time>
      </trkpt>
      <trkpt lat="44.61378" lon="2.16364">
        <ele>276</ele>
        <time>2021-05-09T11:53:15+02:00</time>
      </trkpt>
      <trkpt lat="44.6139" lon="2.16337">
        <ele>276</ele>
        <time>2021-05-09T11:53:31+02:00</time>
      </trkpt>
      <trkpt lat="44.614" lon="2.16309">
        <ele>275</ele>
        <time>2021-05-09T11:53:48+02:00</time>
      </trkpt>
      <trkpt lat="44.61406" lon="2.16277">
        <ele>276</ele>
        <time>2021-05-09T11:54:06+02:00</time>
      </trkpt>
      <trkpt lat="44.61429" lon="2.1627">
        <ele>280</ele>
        <time>2021-05-09T11:54:27+02:00</time>
      </trkpt>
      <trkpt lat="44.61451" lon="2.16267">
        <ele>282</ele>
        <time>2021-05-09T11:54:47+02:00</time>
      </trkpt>
      <trkpt lat="44.61475" lon="2.16266">
        <ele>284</ele>
        <time>2021-05-09T11:55:07+02:00</time>
      </trkpt>
      <trkpt lat="44.61496" lon="2.16257">
        <ele>284</ele>
        <time>2021-05-09T11:55:26+02:00</time>
      </trkpt>
      <trkpt lat="44.61514" lon="2.16237">
        <ele>282</ele>
        <time>2021-05-09T11:55:45+02:00</time>
      </trkpt>
      <trkpt lat="44.61532" lon="2.16216">
        <ele>284</ele>
        <time>2021-05-09T11:56:11+02:00</time>
      </trkpt>
      <trkpt lat="44.6155" lon="2.16197">
        <ele>283</ele>
        <time>2021-05-09T11:56:28+02:00</time>
      </trkpt>
      <trkpt lat="44.61567" lon="2.16175">
        <ele>284</ele>
        <time>2021-05-09T11:56:44+02:00</time>
      </trkpt>
      <trkpt lat="44.61587" lon="2.16161">
        <ele>283</ele>
        <time>2021-05-09T11:56:59+02:00</time>
      </trkpt>
      <trkpt lat="44.61609" lon="2.16175">
        <ele>281</ele>
        <time>2021-05-09T11:57:31+02:00</time>
      </trkpt>
      <trkpt lat="44.61621" lon="2.16203">
        <ele>283</ele>
        <time>2021-05-09T11:57:50+02:00</time>
      </trkpt>
      <trkpt lat="44.61635" lon="2.16229">
        <ele>282</ele>
        <time>2021-05-09T11:58:08+02:00</time>
      </trkpt>
      <trkpt lat="44.61657" lon="2.16224">
        <ele>284</ele>
        <time>2021-05-09T11:58:29+02:00</time>
      </trkpt>
      <trkpt lat="44.61677" lon="2.16206">
        <ele>285</ele>
        <time>2021-05-09T11:59:02+02:00</time>
      </trkpt>
      <trkpt lat="44.61696" lon="2.1619">
        <ele>284</ele>
        <time>2021-05-09T11:59:21+02:00</time>
      </trkpt>
      <trkpt lat="44.61716" lon="2.16174">
        <ele>284</ele>
        <time>2021-05-09T11:59:40+02:00</time>
      </trkpt>
      <trkpt lat="44.61735" lon="2.16155">
        <ele>282</ele>
        <time>2021-05-09T11:59:59+02:00</time>
      </trkpt>
      <trkpt lat="44.61755" lon="2.16137">
        <ele>285</ele>
        <time>2021-05-09T12:00:17+02:00</time>
      </trkpt>
      <trkpt lat="44.61775" lon="2.16119">
        <ele>286</ele>
        <time>2021-05-09T12:00:33+02:00</time>
      </trkpt>
      <trkpt lat="44.61795" lon="2.16103">
        <ele>286</ele>
        <time>2021-05-09T12:00:50+02:00</time>
      </trkpt>
      <trkpt lat="44.61799" lon="2.16069">
        <ele>284</ele>
        <time>2021-05-09T12:01:10+02:00</time>
      </trkpt>
      <trkpt lat="44.61818" lon="2.16052">
        <ele>281</ele>
        <time>2021-05-09T12:01:31+02:00</time>
      </trkpt>
      <trkpt lat="44.61838" lon="2.16036">
        <ele>282</ele>
        <time>2021-05-09T12:01:48+02:00</time>
      </trkpt>
      <trkpt lat="44.61857" lon="2.16017">
        <ele>282</ele>
        <time>2021-05-09T12:02:06+02:00</time>
      </trkpt>
      <trkpt lat="44.61877" lon="2.16003">
        <ele>282</ele>
        <time>2021-05-09T12:02:22+02:00</time>
      </trkpt>
      <trkpt lat="44.61896" lon="2.15985">
        <ele>282</ele>
        <time>2021-05-09T12:02:42+02:00</time>
      </trkpt>
      <trkpt lat="44.61914" lon="2.15965">
        <ele>281</ele>
        <time>2021-05-09T12:03:14+02:00</time>
      </trkpt>
      <trkpt lat="44.61932" lon="2.15946">
        <ele>279</ele>
        <time>2021-05-09T12:03:32+02:00</time>
      </trkpt>
      <trkpt lat="44.61953" lon="2.15931">
        <ele>280</ele>
        <time>2021-05-09T12:03:51+02:00</time>
      </trkpt>
      <trkpt lat="44.61969" lon="2.15908">
        <ele>280</ele>
        <time>2021-05-09T12:04:07+02:00</time>
      </trkpt>
      <trkpt lat="44.61975" lon="2.15877">
        <ele>279</ele>
        <time>2021-05-09T12:04:25+02:00</time>
      </trkpt>
      <trkpt lat="44.61983" lon="2.15847">
        <ele>278</ele>
        <time>2021-05-09T12:04:43+02:00</time>
      </trkpt>
      <trkpt lat="44.61989" lon="2.15816">
        <ele>278</ele>
        <time>2021-05-09T12:05:02+02:00</time>
      </trkpt>
      <trkpt lat="44.61995" lon="2.15784">
        <ele>279</ele>
        <time>2021-05-09T12:05:21+02:00</time>
      </trkpt>
      <trkpt lat="44.62001" lon="2.15753">
        <ele>280</ele>
        <time>2021-05-09T12:05:39+02:00</time>
      </trkpt>
      <trkpt lat="44.62005" lon="2.15722">
        <ele>280</ele>
        <time>2021-05-09T12:06:46+02:00</time>
      </trkpt>
      <trkpt lat="44.6201" lon="2.1569">
        <ele>282</ele>
        <time>2021-05-09T12:07:10+02:00</time>
      </trkpt>
      <trkpt lat="44.62014" lon="2.15659">
        <ele>284</ele>
        <time>2021-05-09T12:08:33+02:00</time>
      </trkpt>
      <trkpt lat="44.62017" lon="2.15627">
        <ele>286</ele>
        <time>2021-05-09T12:08:55+02:00</time>
      </trkpt>
      <trkpt lat="44.62028" lon="2.15599">
        <ele>288</ele>
        <time>2021-05-09T12:15:59+02:00</time>
      </trkpt>
      <trkpt lat="44.62049" lon="2.15586">
        <ele>288</ele>
        <time>2021-05-09T12:16:17+02:00</time>
      </trkpt>
      <trkpt lat="44.6207" lon="2.15573">
        <ele>288</ele>
        <time>2021-05-09T12:16:34+02:00</time>
      </trkpt>
      <trkpt lat="44.62091" lon="2.15561">
        <ele>288</ele>
        <time>2021-05-09T12:16:51+02:00</time>
      </trkpt>
      <trkpt lat="44.62113" lon="2.15549">
        <ele>291</ele>
        <time>2021-05-09T12:17:08+02:00</time>
      </trkpt>
      <trkpt lat="44.62135" lon="2.15538">
        <ele>290</ele>
        <time>2021-05-09T12:17:27+02:00</time>
      </trkpt>
      <trkpt lat="44.62156" lon="2.15528">
        <ele>289</ele>
        <time>2021-05-09T12:17:48+02:00</time>
      </trkpt>
      <trkpt lat="44.62178" lon="2.15517">
        <ele>289</ele>
        <time>2021-05-09T12:18:06+02:00</time>
      </trkpt>
      <trkpt lat="44.62199" lon="2.15507">
        <ele>289</ele>
        <time>2021-05-09T12:18:25+02:00</time>
      </trkpt>
      <trkpt lat="44.62221" lon="2.15497">
        <ele>289</ele>
        <time>2021-05-09T12:18:44+02:00</time>
      </trkpt>
      <trkpt lat="44.62243" lon="2.15485">
        <ele>290</ele>
        <time>2021-05-09T12:19:00+02:00</time>
      </trkpt>
      <trkpt lat="44.62264" lon="2.15473">
        <ele>290</ele>
        <time>2021-05-09T12:19:17+02:00</time>
      </trkpt>
      <trkpt lat="44.62284" lon="2.15459">
        <ele>290</ele>
        <time>2021-05-09T12:19:35+02:00</time>
      </trkpt>
      <trkpt lat="44.62304" lon="2.15443">
        <ele>289</ele>
        <time>2021-05-09T12:19:51+02:00</time>
      </trkpt>
      <trkpt lat="44.62324" lon="2.15427">
        <ele>288</ele>
        <time>2021-05-09T12:20:09+02:00</time>
      </trkpt>
      <trkpt lat="44.62332" lon="2.15398">
        <ele>288</ele>
        <time>2021-05-09T12:20:27+02:00</time>
      </trkpt>
      <trkpt lat="44.62354" lon="2.15391">
        <ele>289</ele>
        <time>2021-05-09T12:20:44+02:00</time>
      </trkpt>
      <trkpt lat="44.62377" lon="2.15388">
        <ele>289</ele>
        <time>2021-05-09T12:21:01+02:00</time>
      </trkpt>
      <trkpt lat="44.624" lon="2.15384">
        <ele>287</ele>
        <time>2021-05-09T12:21:18+02:00</time>
      </trkpt>
      <trkpt lat="44.62424" lon="2.15383">
        <ele>283</ele>
        <time>2021-05-09T12:21:37+02:00</time>
      </trkpt>
      <trkpt lat="44.62447" lon="2.15384">
        <ele>282</ele>
        <time>2021-05-09T12:21:54+02:00</time>
      </trkpt>
      <trkpt lat="44.6247" lon="2.15385">
        <ele>282</ele>
        <time>2021-05-09T12:22:11+02:00</time>
      </trkpt>
      <trkpt lat="44.62493" lon="2.15385">
        <ele>281</ele>
        <time>2021-05-09T12:22:28+02:00</time>
      </trkpt>
      <trkpt lat="44.62517" lon="2.15385">
        <ele>277</ele>
        <time>2021-05-09T12:22:46+02:00</time>
      </trkpt>
      <trkpt lat="44.6254" lon="2.15387">
        <ele>275</ele>
        <time>2021-05-09T12:23:04+02:00</time>
      </trkpt>
      <trkpt lat="44.62564" lon="2.15387">
        <ele>274</ele>
        <time>2021-05-09T12:23:21+02:00</time>
      </trkpt>
      <trkpt lat="44.62581" lon="2.15366">
        <ele>273</ele>
        <time>2021-05-09T12:23:44+02:00</time>
      </trkpt>
      <trkpt lat="44.62585" lon="2.15334">
        <ele>273</ele>
        <time>2021-05-09T12:24:01+02:00</time>
      </trkpt>
      <trkpt lat="44.62586" lon="2.15302">
        <ele>274</ele>
        <time>2021-05-09T12:24:17+02:00</time>
      </trkpt>
      <trkpt lat="44.62583" lon="2.15269">
        <ele>271</ele>
        <time>2021-05-09T12:24:36+02:00</time>
      </trkpt>
      <trkpt lat="44.62581" lon="2.15237">
        <ele>272</ele>
        <time>2021-05-09T12:24:52+02:00</time>
      </trkpt>
      <trkpt lat="44.62578" lon="2.15203">
        <ele>270</ele>
        <time>2021-05-09T12:25:09+02:00</time>
      </trkpt>
      <trkpt lat="44.62575" lon="2.15171">
        <ele>272</ele>
        <time>2021-05-09T12:25:27+02:00</time>
      </trkpt>
      <trkpt lat="44.62573" lon="2.15138">
        <ele>273</ele>
        <time>2021-05-09T12:25:44+02:00</time>
      </trkpt>
      <trkpt lat="44.6257" lon="2.15105">
        <ele>275</ele>
        <time>2021-05-09T12:26:01+02:00</time>
      </trkpt>
      <trkpt lat="44.62571" lon="2.15073">
        <ele>276</ele>
        <time>2021-05-09T12:26:19+02:00</time>
      </trkpt>
      <trkpt lat="44.62577" lon="2.15042">
        <ele>280</ele>
        <time>2021-05-09T12:26:35+02:00</time>
      </trkpt>
      <trkpt lat="44.62583" lon="2.1501">
        <ele>280</ele>
        <time>2021-05-09T12:26:53+02:00</time>
      </trkpt>
      <trkpt lat="44.62582" lon="2.14979">
        <ele>280</ele>
        <time>2021-05-09T12:27:12+02:00</time>
      </trkpt>
      <trkpt lat="44.62579" lon="2.14947">
        <ele>279</ele>
        <time>2021-05-09T12:27:30+02:00</time>
      </trkpt>
      <trkpt lat="44.62574" lon="2.14917">
        <ele>278</ele>
        <time>2021-05-09T12:27:49+02:00</time>
      </trkpt>
      <trkpt lat="44.62567" lon="2.14886">
        <ele>275</ele>
        <time>2021-05-09T12:28:08+02:00</time>
      </trkpt>
      <trkpt lat="44.62563" lon="2.14853">
        <ele>274</ele>
        <time>2021-05-09T12:28:25+02:00</time>
      </trkpt>
      <trkpt lat="44.62569" lon="2.14823">
        <ele>272</ele>
        <time>2021-05-09T12:28:43+02:00</time>
      </trkpt>
      <trkpt lat="44.62581" lon="2.14795">
        <ele>269</ele>
        <time>2021-05-09T12:29:19+02:00</time>
      </trkpt>
      <trkpt lat="44.62591" lon="2.14765">
        <ele>267</ele>
        <time>2021-05-09T12:29:36+02:00</time>
      </trkpt>
      <trkpt lat="44.62597" lon="2.14735">
        <ele>264</ele>
        <time>2021-05-09T12:29:54+02:00</time>
      </trkpt>
      <trkpt lat="44.62598" lon="2.14702">
        <ele>260</ele>
        <time>2021-05-09T12:30:13+02:00</time>
      </trkpt>
      <trkpt lat="44.62599" lon="2.1467">
        <ele>259</ele>
        <time>2021-05-09T12:30:32+02:00</time>
      </trkpt>
      <trkpt lat="44.62601" lon="2.14637">
        <ele>256</ele>
        <time>2021-05-09T12:30:48+02:00</time>
      </trkpt>
      <trkpt lat="44.62603" lon="2.14604">
        <ele>254</ele>
        <time>2021-05-09T12:31:05+02:00</time>
      </trkpt>
      <trkpt lat="44.62604" lon="2.14573">
        <ele>252</ele>
        <time>2021-05-09T12:31:22+02:00</time>
      </trkpt>
      <trkpt lat="44.62607" lon="2.1454">
        <ele>250</ele>
        <time>2021-05-09T12:31:41+02:00</time>
      </trkpt>
      <trkpt lat="44.62609" lon="2.14507">
        <ele>248</ele>
        <time>2021-05-09T12:31:58+02:00</time>
      </trkpt>
      <trkpt lat="44.62611" lon="2.14475">
        <ele>245</ele>
        <time>2021-05-09T12:32:16+02:00</time>
      </trkpt>
      <trkpt lat="44.62615" lon="2.14443">
        <ele>242</ele>
        <time>2021-05-09T12:32:34+02:00</time>
      </trkpt>
      <trkpt lat="44.62624" lon="2.14397">
        <ele>243</ele>
        <time>2021-05-09T13:35:44+02:00</time>
      </trkpt>
      <trkpt lat="44.62622" lon="2.14365">
        <ele>243</ele>
        <time>2021-05-09T13:36:09+02:00</time>
      </trkpt>
      <trkpt lat="44.62615" lon="2.14334">
        <ele>244</ele>
        <time>2021-05-09T13:36:32+02:00</time>
      </trkpt>
      <trkpt lat="44.62606" lon="2.14304">
        <ele>244</ele>
        <time>2021-05-09T13:36:54+02:00</time>
      </trkpt>
      <trkpt lat="44.62597" lon="2.14274">
        <ele>242</ele>
        <time>2021-05-09T13:37:15+02:00</time>
      </trkpt>
      <trkpt lat="44.62585" lon="2.14246">
        <ele>244</ele>
        <time>2021-05-09T13:37:47+02:00</time>
      </trkpt>
      <trkpt lat="44.6257" lon="2.14221">
        <ele>244</ele>
        <time>2021-05-09T13:38:09+02:00</time>
      </trkpt>
      <trkpt lat="44.62555" lon="2.14197">
        <ele>246</ele>
        <time>2021-05-09T13:38:30+02:00</time>
      </trkpt>
      <trkpt lat="44.62544" lon="2.1417">
        <ele>248</ele>
        <time>2021-05-09T13:38:52+02:00</time>
      </trkpt>
      <trkpt lat="44.62542" lon="2.14138">
        <ele>250</ele>
        <time>2021-05-09T13:39:16+02:00</time>
      </trkpt>
      <trkpt lat="44.62538" lon="2.14107">
        <ele>254</ele>
        <time>2021-05-09T13:39:39+02:00</time>
      </trkpt>
      <trkpt lat="44.62535" lon="2.14075">
        <ele>254</ele>
        <time>2021-05-09T13:40:03+02:00</time>
      </trkpt>
      <trkpt lat="44.62526" lon="2.14045">
        <ele>254</ele>
        <time>2021-05-09T13:40:26+02:00</time>
      </trkpt>
      <trkpt lat="44.62525" lon="2.14013">
        <ele>256</ele>
        <time>2021-05-09T13:40:48+02:00</time>
      </trkpt>
      <trkpt lat="44.6252" lon="2.13982">
        <ele>255</ele>
        <time>2021-05-09T13:41:11+02:00</time>
      </trkpt>
      <trkpt lat="44.62515" lon="2.13951">
        <ele>252</ele>
        <time>2021-05-09T13:41:35+02:00</time>
      </trkpt>
      <trkpt lat="44.62511" lon="2.13918">
        <ele>252</ele>
        <time>2021-05-09T13:41:58+02:00</time>
      </trkpt>
      <trkpt lat="44.62499" lon="2.13889">
        <ele>250</ele>
        <time>2021-05-09T13:42:22+02:00</time>
      </trkpt>
      <trkpt lat="44.62493" lon="2.13858">
        <ele>247</ele>
        <time>2021-05-09T13:42:49+02:00</time>
      </trkpt>
      <trkpt lat="44.62482" lon="2.13829">
        <ele>244</ele>
        <time>2021-05-09T13:43:13+02:00</time>
      </trkpt>
      <trkpt lat="44.62471" lon="2.138">
        <ele>245</ele>
        <time>2021-05-09T13:43:35+02:00</time>
      </trkpt>
      <trkpt lat="44.6246" lon="2.13772">
        <ele>243</ele>
        <time>2021-05-09T13:43:56+02:00</time>
      </trkpt>
      <trkpt lat="44.62455" lon="2.13739">
        <ele>245</ele>
        <time>2021-05-09T13:44:26+02:00</time>
      </trkpt>
      <trkpt lat="44.62451" lon="2.13708">
        <ele>247</ele>
        <time>2021-05-09T13:44:48+02:00</time>
      </trkpt>
      <trkpt lat="44.62443" lon="2.13678">
        <ele>245</ele>
        <time>2021-05-09T13:45:08+02:00</time>
      </trkpt>
      <trkpt lat="44.62429" lon="2.13654">
        <ele>248</ele>
        <time>2021-05-09T13:45:30+02:00</time>
      </trkpt>
      <trkpt lat="44.62415" lon="2.13627">
        <ele>250</ele>
        <time>2021-05-09T13:45:55+02:00</time>
      </trkpt>
      <trkpt lat="44.62406" lon="2.13597">
        <ele>249</ele>
        <time>2021-05-09T13:46:19+02:00</time>
      </trkpt>
      <trkpt lat="44.62396" lon="2.13568">
        <ele>249</ele>
        <time>2021-05-09T13:46:42+02:00</time>
      </trkpt>
      <trkpt lat="44.6239" lon="2.13537">
        <ele>247</ele>
        <time>2021-05-09T13:47:05+02:00</time>
      </trkpt>
      <trkpt lat="44.62383" lon="2.13507">
        <ele>247</ele>
        <time>2021-05-09T13:47:28+02:00</time>
      </trkpt>
      <trkpt lat="44.62372" lon="2.13479">
        <ele>249</ele>
        <time>2021-05-09T13:47:50+02:00</time>
      </trkpt>
      <trkpt lat="44.62358" lon="2.13453">
        <ele>249</ele>
        <time>2021-05-09T13:48:12+02:00</time>
      </trkpt>
      <trkpt lat="44.62346" lon="2.13425">
        <ele>249</ele>
        <time>2021-05-09T13:48:36+02:00</time>
      </trkpt>
      <trkpt lat="44.62337" lon="2.13394">
        <ele>250</ele>
        <time>2021-05-09T13:49:02+02:00</time>
      </trkpt>
      <trkpt lat="44.62334" lon="2.13362">
        <ele>252</ele>
        <time>2021-05-09T13:49:25+02:00</time>
      </trkpt>
      <trkpt lat="44.62333" lon="2.1333">
        <ele>254</ele>
        <time>2021-05-09T13:49:56+02:00</time>
      </trkpt>
      <trkpt lat="44.62333" lon="2.13297">
        <ele>255</ele>
        <time>2021-05-09T13:50:22+02:00</time>
      </trkpt>
      <trkpt lat="44.62336" lon="2.13265">
        <ele>256</ele>
        <time>2021-05-09T13:50:45+02:00</time>
      </trkpt>
      <trkpt lat="44.6234" lon="2.13232">
        <ele>258</ele>
        <time>2021-05-09T13:51:09+02:00</time>
      </trkpt>
      <trkpt lat="44.62344" lon="2.13201">
        <ele>258</ele>
        <time>2021-05-09T13:51:33+02:00</time>
      </trkpt>
      <trkpt lat="44.62348" lon="2.1317">
        <ele>260</ele>
        <time>2021-05-09T13:51:58+02:00</time>
      </trkpt>
      <trkpt lat="44.62353" lon="2.13138">
        <ele>262</ele>
        <time>2021-05-09T13:52:25+02:00</time>
      </trkpt>
      <trkpt lat="44.62354" lon="2.13106">
        <ele>264</ele>
        <time>2021-05-09T13:52:51+02:00</time>
      </trkpt>
      <trkpt lat="44.62354" lon="2.13074">
        <ele>265</ele>
        <time>2021-05-09T13:53:16+02:00</time>
      </trkpt>
      <trkpt lat="44.62354" lon="2.13042">
        <ele>266</ele>
        <time>2021-05-09T13:53:40+02:00</time>
      </trkpt>
      <trkpt lat="44.62354" lon="2.1301">
        <ele>267</ele>
        <time>2021-05-09T13:54:02+02:00</time>
      </trkpt>
      <trkpt lat="44.62354" lon="2.12978">
        <ele>270</ele>
        <time>2021-05-09T13:54:25+02:00</time>
      </trkpt>
      <trkpt lat="44.62356" lon="2.12945">
        <ele>270</ele>
        <time>2021-05-09T13:54:48+02:00</time>
      </trkpt>
      <trkpt lat="44.62356" lon="2.12912">
        <ele>270</ele>
        <time>2021-05-09T13:55:10+02:00</time>
      </trkpt>
      <trkpt lat="44.62358" lon="2.12881">
        <ele>272</ele>
        <time>2021-05-09T13:55:31+02:00</time>
      </trkpt>
      <trkpt lat="44.62357" lon="2.12848">
        <ele>272</ele>
        <time>2021-05-09T13:55:53+02:00</time>
      </trkpt>
      <trkpt lat="44.62358" lon="2.12815">
        <ele>272</ele>
        <time>2021-05-09T13:56:15+02:00</time>
      </trkpt>
      <trkpt lat="44.62359" lon="2.12783">
        <ele>273</ele>
        <time>2021-05-09T13:56:37+02:00</time>
      </trkpt>
      <trkpt lat="44.62359" lon="2.1275">
        <ele>275</ele>
        <time>2021-05-09T13:56:59+02:00</time>
      </trkpt>
      <trkpt lat="44.62359" lon="2.12718">
        <ele>276</ele>
        <time>2021-05-09T13:57:30+02:00</time>
      </trkpt>
      <trkpt lat="44.62355" lon="2.12687">
        <ele>277</ele>
        <time>2021-05-09T13:57:46+02:00</time>
      </trkpt>
      <trkpt lat="44.6235" lon="2.12656">
        <ele>278</ele>
        <time>2021-05-09T13:58:06+02:00</time>
      </trkpt>
      <trkpt lat="44.62327" lon="2.12659">
        <ele>278</ele>
        <time>2021-05-09T13:58:25+02:00</time>
      </trkpt>
      <trkpt lat="44.62307" lon="2.12672">
        <ele>277</ele>
        <time>2021-05-09T13:58:45+02:00</time>
      </trkpt>
      <trkpt lat="44.6229" lon="2.12693">
        <ele>277</ele>
        <time>2021-05-09T13:59:07+02:00</time>
      </trkpt>
      <trkpt lat="44.62267" lon="2.12692">
        <ele>276</ele>
        <time>2021-05-09T13:59:31+02:00</time>
      </trkpt>
      <trkpt lat="44.62244" lon="2.12699">
        <ele>276</ele>
        <time>2021-05-09T13:59:53+02:00</time>
      </trkpt>
      <trkpt lat="44.62221" lon="2.12704">
        <ele>276</ele>
        <time>2021-05-09T14:00:14+02:00</time>
      </trkpt>
      <trkpt lat="44.62199" lon="2.12702">
        <ele>271</ele>
        <time>2021-05-09T14:00:45+02:00</time>
      </trkpt>
      <trkpt lat="44.62176" lon="2.12702">
        <ele>268</ele>
        <time>2021-05-09T14:01:45+02:00</time>
      </trkpt>
      <trkpt lat="44.62153" lon="2.12701">
        <ele>265</ele>
        <time>2021-05-09T14:02:29+02:00</time>
      </trkpt>
      <trkpt lat="44.6213" lon="2.12699">
        <ele>263</ele>
        <time>2021-05-09T14:03:05+02:00</time>
      </trkpt>
      <trkpt lat="44.62108" lon="2.12698">
        <ele>266</ele>
        <time>2021-05-09T14:03:37+02:00</time>
      </trkpt>
      <trkpt lat="44.62086" lon="2.1269">
        <ele>266</ele>
        <time>2021-05-09T14:04:03+02:00</time>
      </trkpt>
      <trkpt lat="44.62066" lon="2.12672">
        <ele>268</ele>
        <time>2021-05-09T14:04:38+02:00</time>
      </trkpt>
      <trkpt lat="44.62043" lon="2.12672">
        <ele>272</ele>
        <time>2021-05-09T14:05:03+02:00</time>
      </trkpt>
      <trkpt lat="44.62023" lon="2.12656">
        <ele>272</ele>
        <time>2021-05-09T14:05:57+02:00</time>
      </trkpt>
      <trkpt lat="44.62015" lon="2.12626">
        <ele>276</ele>
        <time>2021-05-09T14:06:21+02:00</time>
      </trkpt>
      <trkpt lat="44.62008" lon="2.12596">
        <ele>275</ele>
        <time>2021-05-09T14:06:46+02:00</time>
      </trkpt>
      <trkpt lat="44.62" lon="2.12565">
        <ele>279</ele>
        <time>2021-05-09T14:07:11+02:00</time>
      </trkpt>
      <trkpt lat="44.61991" lon="2.12536">
        <ele>279</ele>
        <time>2021-05-09T14:07:39+02:00</time>
      </trkpt>
      <trkpt lat="44.6198" lon="2.12507">
        <ele>283</ele>
        <time>2021-05-09T14:08:09+02:00</time>
      </trkpt>
      <trkpt lat="44.61964" lon="2.12485">
        <ele>284</ele>
        <time>2021-05-09T14:08:36+02:00</time>
      </trkpt>
      <trkpt lat="44.61944" lon="2.12466">
        <ele>285</ele>
        <time>2021-05-09T14:09:04+02:00</time>
      </trkpt>
      <trkpt lat="44.61927" lon="2.12445">
        <ele>285</ele>
        <time>2021-05-09T14:09:29+02:00</time>
      </trkpt>
      <trkpt lat="44.61904" lon="2.12438">
        <ele>283</ele>
        <time>2021-05-09T14:09:54+02:00</time>
      </trkpt>
      <trkpt lat="44.61882" lon="2.12447">
        <ele>286</ele>
        <time>2021-05-09T14:10:18+02:00</time>
      </trkpt>
      <trkpt lat="44.61859" lon="2.1245">
        <ele>287</ele>
        <time>2021-05-09T14:10:43+02:00</time>
      </trkpt>
      <trkpt lat="44.61836" lon="2.1245">
        <ele>285</ele>
        <time>2021-05-09T14:11:09+02:00</time>
      </trkpt>
      <trkpt lat="44.61814" lon="2.12441">
        <ele>288</ele>
        <time>2021-05-09T14:11:35+02:00</time>
      </trkpt>
      <trkpt lat="44.61796" lon="2.1242">
        <ele>285</ele>
        <time>2021-05-09T14:11:58+02:00</time>
      </trkpt>
      <trkpt lat="44.61778" lon="2.12401">
        <ele>286</ele>
        <time>2021-05-09T14:12:19+02:00</time>
      </trkpt>
      <trkpt lat="44.61763" lon="2.12377">
        <ele>285</ele>
        <time>2021-05-09T14:12:39+02:00</time>
      </trkpt>
      <trkpt lat="44.61749" lon="2.12353">
        <ele>286</ele>
        <time>2021-05-09T14:13:01+02:00</time>
      </trkpt>
      <trkpt lat="44.61728" lon="2.1234">
        <ele>287</ele>
        <time>2021-05-09T14:13:22+02:00</time>
      </trkpt>
      <trkpt lat="44.61706" lon="2.12329">
        <ele>286</ele>
        <time>2021-05-09T14:13:46+02:00</time>
      </trkpt>
      <trkpt lat="44.61685" lon="2.12315">
        <ele>287</ele>
        <time>2021-05-09T14:14:08+02:00</time>
      </trkpt>
      <trkpt lat="44.61665" lon="2.123">
        <ele>286</ele>
        <time>2021-05-09T14:14:29+02:00</time>
      </trkpt>
      <trkpt lat="44.61646" lon="2.12283">
        <ele>285</ele>
        <time>2021-05-09T14:15:39+02:00</time>
      </trkpt>
      <trkpt lat="44.6163" lon="2.12257">
        <ele>283</ele>
        <time>2021-05-09T14:16:00+02:00</time>
      </trkpt>
      <trkpt lat="44.61614" lon="2.12235">
        <ele>281</ele>
        <time>2021-05-09T14:16:21+02:00</time>
      </trkpt>
      <trkpt lat="44.61598" lon="2.12211">
        <ele>276</ele>
        <time>2021-05-09T14:16:44+02:00</time>
      </trkpt>
      <trkpt lat="44.61585" lon="2.12183">
        <ele>277</ele>
        <time>2021-05-09T14:17:02+02:00</time>
      </trkpt>
      <trkpt lat="44.61568" lon="2.12162">
        <ele>275</ele>
        <time>2021-05-09T14:17:21+02:00</time>
      </trkpt>
      <trkpt lat="44.6155" lon="2.12142">
        <ele>275</ele>
        <time>2021-05-09T14:17:50+02:00</time>
      </trkpt>
      <trkpt lat="44.61544" lon="2.1211">
        <ele>274</ele>
        <time>2021-05-09T14:18:21+02:00</time>
      </trkpt>
      <trkpt lat="44.61543" lon="2.12077">
        <ele>274</ele>
        <time>2021-05-09T14:18:47+02:00</time>
      </trkpt>
      <trkpt lat="44.61536" lon="2.12046">
        <ele>272</ele>
        <time>2021-05-09T14:19:12+02:00</time>
      </trkpt>
      <trkpt lat="44.61533" lon="2.12014">
        <ele>274</ele>
        <time>2021-05-09T14:19:36+02:00</time>
      </trkpt>
      <trkpt lat="44.61529" lon="2.11983">
        <ele>278</ele>
        <time>2021-05-09T14:20:02+02:00</time>
      </trkpt>
      <trkpt lat="44.61525" lon="2.11952">
        <ele>279</ele>
        <time>2021-05-09T14:20:31+02:00</time>
      </trkpt>
      <trkpt lat="44.61522" lon="2.11921">
        <ele>281</ele>
        <time>2021-05-09T14:21:01+02:00</time>
      </trkpt>
      <trkpt lat="44.61511" lon="2.11892">
        <ele>285</ele>
        <time>2021-05-09T14:21:28+02:00</time>
      </trkpt>
      <trkpt lat="44.61488" lon="2.11887">
        <ele>288</ele>
        <time>2021-05-09T14:22:36+02:00</time>
      </trkpt>
      <trkpt lat="44.61465" lon="2.11885">
        <ele>285</ele>
        <time>2021-05-09T14:23:03+02:00</time>
      </trkpt>
      <trkpt lat="44.61443" lon="2.11873">
        <ele>286</ele>
        <time>2021-05-09T14:23:40+02:00</time>
      </trkpt>
      <trkpt lat="44.61421" lon="2.11864">
        <ele>284</ele>
        <time>2021-05-09T14:24:20+02:00</time>
      </trkpt>
      <trkpt lat="44.614" lon="2.1185">
        <ele>282</ele>
        <time>2021-05-09T14:24:54+02:00</time>
      </trkpt>
      <trkpt lat="44.6138" lon="2.11836">
        <ele>281</ele>
        <time>2021-05-09T14:25:26+02:00</time>
      </trkpt>
      <trkpt lat="44.61357" lon="2.11831">
        <ele>277</ele>
        <time>2021-05-09T14:25:53+02:00</time>
      </trkpt>
      <trkpt lat="44.61339" lon="2.11851">
        <ele>276</ele>
        <time>2021-05-09T14:26:21+02:00</time>
      </trkpt>
      <trkpt lat="44.61322" lon="2.11873">
        <ele>276</ele>
        <time>2021-05-09T14:26:47+02:00</time>
      </trkpt>
      <trkpt lat="44.61305" lon="2.11895">
        <ele>275</ele>
        <time>2021-05-09T14:27:12+02:00</time>
      </trkpt>
      <trkpt lat="44.61289" lon="2.11919">
        <ele>274</ele>
        <time>2021-05-09T14:27:37+02:00</time>
      </trkpt>
      <trkpt lat="44.61272" lon="2.11942">
        <ele>271</ele>
        <time>2021-05-09T14:28:03+02:00</time>
      </trkpt>
      <trkpt lat="44.61255" lon="2.11962">
        <ele>270</ele>
        <time>2021-05-09T14:28:26+02:00</time>
      </trkpt>
      <trkpt lat="44.61232" lon="2.11961">
        <ele>271</ele>
        <time>2021-05-09T14:29:19+02:00</time>
      </trkpt>
      <trkpt lat="44.61209" lon="2.11958">
        <ele>272</ele>
        <time>2021-05-09T14:29:55+02:00</time>
      </trkpt>
      <trkpt lat="44.61188" lon="2.11972">
        <ele>273</ele>
        <time>2021-05-09T14:30:19+02:00</time>
      </trkpt>
      <trkpt lat="44.61166" lon="2.11963">
        <ele>275</ele>
        <time>2021-05-09T14:30:50+02:00</time>
      </trkpt>
      <trkpt lat="44.61157" lon="2.11934">
        <ele>275</ele>
        <time>2021-05-09T14:31:14+02:00</time>
      </trkpt>
      <trkpt lat="44.61149" lon="2.11904">
        <ele>276</ele>
        <time>2021-05-09T14:31:38+02:00</time>
      </trkpt>
      <trkpt lat="44.61142" lon="2.11874">
        <ele>277</ele>
        <time>2021-05-09T14:32:01+02:00</time>
      </trkpt>
      <trkpt lat="44.61138" lon="2.11842">
        <ele>276</ele>
        <time>2021-05-09T14:32:25+02:00</time>
      </trkpt>
      <trkpt lat="44.6113" lon="2.11812">
        <ele>279</ele>
        <time>2021-05-09T14:32:49+02:00</time>
      </trkpt>
      <trkpt lat="44.6112" lon="2.11782">
        <ele>281</ele>
        <time>2021-05-09T14:33:12+02:00</time>
      </trkpt>
      <trkpt lat="44.61098" lon="2.11775">
        <ele>281</ele>
        <time>2021-05-09T14:33:57+02:00</time>
      </trkpt>
      <trkpt lat="44.6108" lon="2.11795">
        <ele>280</ele>
        <time>2021-05-09T14:34:23+02:00</time>
      </trkpt>
      <trkpt lat="44.61059" lon="2.11808">
        <ele>283</ele>
        <time>2021-05-09T14:34:51+02:00</time>
      </trkpt>
      <trkpt lat="44.61037" lon="2.11816">
        <ele>284</ele>
        <time>2021-05-09T14:35:17+02:00</time>
      </trkpt>
      <trkpt lat="44.61014" lon="2.11821">
        <ele>286</ele>
        <time>2021-05-09T14:35:45+02:00</time>
      </trkpt>
      <trkpt lat="44.60992" lon="2.11829">
        <ele>288</ele>
        <time>2021-05-09T14:36:30+02:00</time>
      </trkpt>
      <trkpt lat="44.60976" lon="2.11808">
        <ele>290</ele>
        <time>2021-05-09T14:37:26+02:00</time>
      </trkpt>
      <trkpt lat="44.60966" lon="2.11778">
        <ele>290</ele>
        <time>2021-05-09T14:37:56+02:00</time>
      </trkpt>
      <trkpt lat="44.60959" lon="2.11748">
        <ele>290</ele>
        <time>2021-05-09T14:38:24+02:00</time>
      </trkpt>
      <trkpt lat="44.60957" lon="2.11716">
        <ele>291</ele>
        <time>2021-05-09T14:38:49+02:00</time>
      </trkpt>
      <trkpt lat="44.60956" lon="2.11684">
        <ele>290</ele>
        <time>2021-05-09T14:39:13+02:00</time>
      </trkpt>
      <trkpt lat="44.60969" lon="2.11658">
        <ele>289</ele>
        <time>2021-05-09T14:39:43+02:00</time>
      </trkpt>
      <trkpt lat="44.60982" lon="2.11631">
        <ele>288</ele>
        <time>2021-05-09T14:40:07+02:00</time>
      </trkpt>
      <trkpt lat="44.60993" lon="2.11602">
        <ele>288</ele>
        <time>2021-05-09T14:40:30+02:00</time>
      </trkpt>
      <trkpt lat="44.61007" lon="2.11576">
        <ele>290</ele>
        <time>2021-05-09T14:40:56+02:00</time>
      </trkpt>
      <trkpt lat="44.61018" lon="2.11548">
        <ele>290</ele>
        <time>2021-05-09T14:41:22+02:00</time>
      </trkpt>
      <trkpt lat="44.61038" lon="2.11533">
        <ele>292</ele>
        <time>2021-05-09T14:41:56+02:00</time>
      </trkpt>
      <trkpt lat="44.61027" lon="2.11504">
        <ele>292</ele>
        <time>2021-05-09T14:43:55+02:00</time>
      </trkpt>
      <trkpt lat="44.61023" lon="2.11472">
        <ele>291</ele>
        <time>2021-05-09T14:44:17+02:00</time>
      </trkpt>
      <trkpt lat="44.61025" lon="2.11441">
        <ele>290</ele>
        <time>2021-05-09T14:44:46+02:00</time>
      </trkpt>
      <trkpt lat="44.61045" lon="2.11427">
        <ele>292</ele>
        <time>2021-05-09T14:45:19+02:00</time>
      </trkpt>
      <trkpt lat="44.61068" lon="2.11418">
        <ele>294</ele>
        <time>2021-05-09T14:45:42+02:00</time>
      </trkpt>
      <trkpt lat="44.6109" lon="2.11412">
        <ele>295</ele>
        <time>2021-05-09T14:46:21+02:00</time>
      </trkpt>
      <trkpt lat="44.61113" lon="2.11402">
        <ele>296</ele>
        <time>2021-05-09T14:46:42+02:00</time>
      </trkpt>
      <trkpt lat="44.61133" lon="2.11387">
        <ele>300</ele>
        <time>2021-05-09T14:47:20+02:00</time>
      </trkpt>
      <trkpt lat="44.6115" lon="2.11366">
        <ele>302</ele>
        <time>2021-05-09T14:47:43+02:00</time>
      </trkpt>
      <trkpt lat="44.61166" lon="2.11343">
        <ele>304</ele>
        <time>2021-05-09T14:48:06+02:00</time>
      </trkpt>
      <trkpt lat="44.61184" lon="2.11322">
        <ele>306</ele>
        <time>2021-05-09T14:48:32+02:00</time>
      </trkpt>
      <trkpt lat="44.61197" lon="2.11297">
        <ele>308</ele>
        <time>2021-05-09T14:48:58+02:00</time>
      </trkpt>
      <trkpt lat="44.61208" lon="2.11268">
        <ele>310</ele>
        <time>2021-05-09T14:49:22+02:00</time>
      </trkpt>
      <trkpt lat="44.61221" lon="2.11242">
        <ele>310</ele>
        <time>2021-05-09T14:49:49+02:00</time>
      </trkpt>
      <trkpt lat="44.61243" lon="2.11233">
        <ele>311</ele>
        <time>2021-05-09T14:50:14+02:00</time>
      </trkpt>
      <trkpt lat="44.61265" lon="2.11226">
        <ele>312</ele>
        <time>2021-05-09T14:50:53+02:00</time>
      </trkpt>
      <trkpt lat="44.61287" lon="2.11215">
        <ele>312</ele>
        <time>2021-05-09T14:51:22+02:00</time>
      </trkpt>
      <trkpt lat="44.61308" lon="2.11203">
        <ele>314</ele>
        <time>2021-05-09T14:51:48+02:00</time>
      </trkpt>
      <trkpt lat="44.61329" lon="2.1119">
        <ele>315</ele>
        <time>2021-05-09T14:52:11+02:00</time>
      </trkpt>
      <trkpt lat="44.6135" lon="2.11177">
        <ele>317</ele>
        <time>2021-05-09T14:52:35+02:00</time>
      </trkpt>
      <trkpt lat="44.61371" lon="2.11164">
        <ele>320</ele>
        <time>2021-05-09T14:52:59+02:00</time>
      </trkpt>
      <trkpt lat="44.61392" lon="2.11151">
        <ele>322</ele>
        <time>2021-05-09T14:53:25+02:00</time>
      </trkpt>
      <trkpt lat="44.61413" lon="2.11137">
        <ele>323</ele>
        <time>2021-05-09T14:53:51+02:00</time>
      </trkpt>
      <trkpt lat="44.61434" lon="2.11123">
        <ele>326</ele>
        <time>2021-05-09T14:54:25+02:00</time>
      </trkpt>
      <trkpt lat="44.61455" lon="2.1111">
        <ele>329</ele>
        <time>2021-05-09T14:54:51+02:00</time>
      </trkpt>
      <trkpt lat="44.61475" lon="2.11094">
        <ele>332</ele>
        <time>2021-05-09T14:55:17+02:00</time>
      </trkpt>
      <trkpt lat="44.61494" lon="2.11076">
        <ele>334</ele>
        <time>2021-05-09T14:55:56+02:00</time>
      </trkpt>
      <trkpt lat="44.61514" lon="2.11061">
        <ele>336</ele>
        <time>2021-05-09T14:56:25+02:00</time>
      </trkpt>
      <trkpt lat="44.61535" lon="2.11046">
        <ele>338</ele>
        <time>2021-05-09T14:56:53+02:00</time>
      </trkpt>
      <trkpt lat="44.61556" lon="2.11032">
        <ele>337</ele>
        <time>2021-05-09T14:57:17+02:00</time>
      </trkpt>
      <trkpt lat="44.61576" lon="2.11017">
        <ele>340</ele>
        <time>2021-05-09T14:57:42+02:00</time>
      </trkpt>
      <trkpt lat="44.61598" lon="2.11004">
        <ele>342</ele>
        <time>2021-05-09T14:58:05+02:00</time>
      </trkpt>
      <trkpt lat="44.61619" lon="2.10991">
        <ele>340</ele>
        <time>2021-05-09T14:58:28+02:00</time>
      </trkpt>
      <trkpt lat="44.61641" lon="2.10981">
        <ele>341</ele>
        <time>2021-05-09T14:58:49+02:00</time>
      </trkpt>
      <trkpt lat="44.61658" lon="2.10961">
        <ele>341</ele>
        <time>2021-05-09T14:59:32+02:00</time>
      </trkpt>
      <trkpt lat="44.61674" lon="2.10936">
        <ele>340</ele>
        <time>2021-05-09T14:59:53+02:00</time>
      </trkpt>
      <trkpt lat="44.61688" lon="2.1091">
        <ele>340</ele>
        <time>2021-05-09T15:00:15+02:00</time>
      </trkpt>
      <trkpt lat="44.61703" lon="2.10885">
        <ele>341</ele>
        <time>2021-05-09T15:00:36+02:00</time>
      </trkpt>
      <trkpt lat="44.61718" lon="2.1086">
        <ele>341</ele>
        <time>2021-05-09T15:00:57+02:00</time>
      </trkpt>
      <trkpt lat="44.61739" lon="2.10846">
        <ele>341</ele>
        <time>2021-05-09T15:02:56+02:00</time>
      </trkpt>
      <trkpt lat="44.61763" lon="2.10846">
        <ele>340</ele>
        <time>2021-05-09T15:03:21+02:00</time>
      </trkpt>
      <trkpt lat="44.61786" lon="2.10844">
        <ele>340</ele>
        <time>2021-05-09T15:03:43+02:00</time>
      </trkpt>
      <trkpt lat="44.61808" lon="2.10843">
        <ele>340</ele>
        <time>2021-05-09T15:04:04+02:00</time>
      </trkpt>
      <trkpt lat="44.61832" lon="2.10843">
        <ele>341</ele>
        <time>2021-05-09T15:04:24+02:00</time>
      </trkpt>
      <trkpt lat="44.61855" lon="2.10836">
        <ele>339</ele>
        <time>2021-05-09T15:04:48+02:00</time>
      </trkpt>
      <trkpt lat="44.61878" lon="2.10829">
        <ele>339</ele>
        <time>2021-05-09T15:05:11+02:00</time>
      </trkpt>
      <trkpt lat="44.619" lon="2.10819">
        <ele>340</ele>
        <time>2021-05-09T15:05:31+02:00</time>
      </trkpt>
      <trkpt lat="44.6192" lon="2.10805">
        <ele>342</ele>
        <time>2021-05-09T15:06:32+02:00</time>
      </trkpt>
      <trkpt lat="44.61942" lon="2.10791">
        <ele>342</ele>
        <time>2021-05-09T15:06:55+02:00</time>
      </trkpt>
      <trkpt lat="44.61963" lon="2.10778">
        <ele>343</ele>
        <time>2021-05-09T15:07:19+02:00</time>
      </trkpt>
      <trkpt lat="44.61986" lon="2.1077">
        <ele>344</ele>
        <time>2021-05-09T15:07:52+02:00</time>
      </trkpt>
      <trkpt lat="44.61995" lon="2.1074">
        <ele>347</ele>
        <time>2021-05-09T15:09:33+02:00</time>
      </trkpt>
      <trkpt lat="44.61984" lon="2.10711">
        <ele>346</ele>
        <time>2021-05-09T15:09:56+02:00</time>
      </trkpt>
      <trkpt lat="44.61975" lon="2.10681">
        <ele>348</ele>
        <time>2021-05-09T15:10:18+02:00</time>
      </trkpt>
      <trkpt lat="44.61965" lon="2.10652">
        <ele>351</ele>
        <time>2021-05-09T15:10:40+02:00</time>
      </trkpt>
      <trkpt lat="44.61955" lon="2.10623">
        <ele>350</ele>
        <time>2021-05-09T15:11:02+02:00</time>
      </trkpt>
      <trkpt lat="44.6194" lon="2.10596">
        <ele>350</ele>
        <time>2021-05-09T15:11:22+02:00</time>
      </trkpt>
      <trkpt lat="44.61925" lon="2.10571">
        <ele>348</ele>
        <time>2021-05-09T15:11:41+02:00</time>
      </trkpt>
      <trkpt lat="44.6191" lon="2.10547">
        <ele>346</ele>
        <time>2021-05-09T15:12:01+02:00</time>
      </trkpt>
      <trkpt lat="44.61894" lon="2.10523">
        <ele>345</ele>
        <time>2021-05-09T15:12:19+02:00</time>
      </trkpt>
      <trkpt lat="44.61877" lon="2.10501">
        <ele>343</ele>
        <time>2021-05-09T15:12:39+02:00</time>
      </trkpt>
      <trkpt lat="44.61862" lon="2.10477">
        <ele>342</ele>
        <time>2021-05-09T15:12:59+02:00</time>
      </trkpt>
      <trkpt lat="44.61844" lon="2.10455">
        <ele>341</ele>
        <time>2021-05-09T15:13:18+02:00</time>
      </trkpt>
      <trkpt lat="44.61833" lon="2.10427">
        <ele>340</ele>
        <time>2021-05-09T15:13:40+02:00</time>
      </trkpt>
      <trkpt lat="44.61826" lon="2.10397">
        <ele>340</ele>
        <time>2021-05-09T15:13:59+02:00</time>
      </trkpt>
      <trkpt lat="44.61819" lon="2.10366">
        <ele>339</ele>
        <time>2021-05-09T15:14:18+02:00</time>
      </trkpt>
      <trkpt lat="44.61811" lon="2.10335">
        <ele>340</ele>
        <time>2021-05-09T15:14:35+02:00</time>
      </trkpt>
      <trkpt lat="44.61803" lon="2.10305">
        <ele>340</ele>
        <time>2021-05-09T15:14:53+02:00</time>
      </trkpt>
      <trkpt lat="44.61795" lon="2.10274">
        <ele>340</ele>
        <time>2021-05-09T15:15:10+02:00</time>
      </trkpt>
      <trkpt lat="44.61787" lon="2.10243">
        <ele>340</ele>
        <time>2021-05-09T15:15:27+02:00</time>
      </trkpt>
      <trkpt lat="44.61779" lon="2.10212">
        <ele>340</ele>
        <time>2021-05-09T15:15:45+02:00</time>
      </trkpt>
      <trkpt lat="44.61771" lon="2.10182">
        <ele>342</ele>
        <time>2021-05-09T15:16:04+02:00</time>
      </trkpt>
      <trkpt lat="44.61764" lon="2.1015">
        <ele>342</ele>
        <time>2021-05-09T15:16:23+02:00</time>
      </trkpt>
      <trkpt lat="44.61756" lon="2.10119">
        <ele>341</ele>
        <time>2021-05-09T15:16:42+02:00</time>
      </trkpt>
      <trkpt lat="44.61747" lon="2.1009">
        <ele>345</ele>
        <time>2021-05-09T15:16:59+02:00</time>
      </trkpt>
      <trkpt lat="44.61735" lon="2.10062">
        <ele>343</ele>
        <time>2021-05-09T15:17:18+02:00</time>
      </trkpt>
      <trkpt lat="44.61722" lon="2.10035">
        <ele>344</ele>
        <time>2021-05-09T15:17:43+02:00</time>
      </trkpt>
      <trkpt lat="44.6171" lon="2.10007">
        <ele>344</ele>
        <time>2021-05-09T15:17:56+02:00</time>
      </trkpt>
      <trkpt lat="44.61698" lon="2.0998">
        <ele>346</ele>
        <time>2021-05-09T15:18:15+02:00</time>
      </trkpt>
      <trkpt lat="44.61685" lon="2.09953">
        <ele>345</ele>
        <time>2021-05-09T15:18:34+02:00</time>
      </trkpt>
      <trkpt lat="44.61672" lon="2.09927">
        <ele>346</ele>
        <time>2021-05-09T15:18:52+02:00</time>
      </trkpt>
      <trkpt lat="44.6166" lon="2.09899">
        <ele>347</ele>
        <time>2021-05-09T15:19:11+02:00</time>
      </trkpt>
      <trkpt lat="44.61644" lon="2.09875">
        <ele>349</ele>
        <time>2021-05-09T15:19:28+02:00</time>
      </trkpt>
      <trkpt lat="44.61628" lon="2.09852">
        <ele>349</ele>
        <time>2021-05-09T15:19:46+02:00</time>
      </trkpt>
      <trkpt lat="44.61611" lon="2.09828">
        <ele>348</ele>
        <time>2021-05-09T15:20:04+02:00</time>
      </trkpt>
      <trkpt lat="44.61594" lon="2.09806">
        <ele>350</ele>
        <time>2021-05-09T15:20:22+02:00</time>
      </trkpt>
      <trkpt lat="44.61577" lon="2.09783">
        <ele>351</ele>
        <time>2021-05-09T15:20:38+02:00</time>
      </trkpt>
      <trkpt lat="44.61561" lon="2.09758">
        <ele>353</ele>
        <time>2021-05-09T15:20:55+02:00</time>
      </trkpt>
      <trkpt lat="44.61545" lon="2.09734">
        <ele>354</ele>
        <time>2021-05-09T15:21:12+02:00</time>
      </trkpt>
      <trkpt lat="44.61529" lon="2.09712">
        <ele>357</ele>
        <time>2021-05-09T15:21:29+02:00</time>
      </trkpt>
      <trkpt lat="44.61512" lon="2.09688">
        <ele>357</ele>
        <time>2021-05-09T15:21:47+02:00</time>
      </trkpt>
      <trkpt lat="44.61494" lon="2.09669">
        <ele>355</ele>
        <time>2021-05-09T15:22:04+02:00</time>
      </trkpt>
      <trkpt lat="44.61481" lon="2.09642">
        <ele>358</ele>
        <time>2021-05-09T15:22:22+02:00</time>
      </trkpt>
      <trkpt lat="44.61471" lon="2.09614">
        <ele>358</ele>
        <time>2021-05-09T15:22:40+02:00</time>
      </trkpt>
      <trkpt lat="44.61469" lon="2.09582">
        <ele>361</ele>
        <time>2021-05-09T15:22:56+02:00</time>
      </trkpt>
      <trkpt lat="44.61471" lon="2.0955">
        <ele>362</ele>
        <time>2021-05-09T15:23:13+02:00</time>
      </trkpt>
      <trkpt lat="44.61473" lon="2.09517">
        <ele>365</ele>
        <time>2021-05-09T15:23:31+02:00</time>
      </trkpt>
      <trkpt lat="44.61477" lon="2.09485">
        <ele>367</ele>
        <time>2021-05-09T15:23:49+02:00</time>
      </trkpt>
      <trkpt lat="44.61478" lon="2.09452">
        <ele>366</ele>
        <time>2021-05-09T15:24:06+02:00</time>
      </trkpt>
      <trkpt lat="44.61481" lon="2.0942">
        <ele>368</ele>
        <time>2021-05-09T15:24:24+02:00</time>
      </trkpt>
      <trkpt lat="44.61483" lon="2.09387">
        <ele>368</ele>
        <time>2021-05-09T15:24:42+02:00</time>
      </trkpt>
      <trkpt lat="44.61485" lon="2.09356">
        <ele>368</ele>
        <time>2021-05-09T15:24:59+02:00</time>
      </trkpt>
      <trkpt lat="44.61489" lon="2.09324">
        <ele>371</ele>
        <time>2021-05-09T15:25:15+02:00</time>
      </trkpt>
      <trkpt lat="44.61491" lon="2.09292">
        <ele>371</ele>
        <time>2021-05-09T15:25:32+02:00</time>
      </trkpt>
      <trkpt lat="44.61494" lon="2.0926">
        <ele>371</ele>
        <time>2021-05-09T15:25:49+02:00</time>
      </trkpt>
      <trkpt lat="44.61499" lon="2.09228">
        <ele>375</ele>
        <time>2021-05-09T15:26:07+02:00</time>
      </trkpt>
      <trkpt lat="44.61502" lon="2.09196">
        <ele>375</ele>
        <time>2021-05-09T15:26:24+02:00</time>
      </trkpt>
      <trkpt lat="44.61503" lon="2.09163">
        <ele>375</ele>
        <time>2021-05-09T15:26:41+02:00</time>
      </trkpt>
      <trkpt lat="44.61506" lon="2.0913">
        <ele>375</ele>
        <time>2021-05-09T15:26:59+02:00</time>
      </trkpt>
      <trkpt lat="44.61508" lon="2.09097">
        <ele>376</ele>
        <time>2021-05-09T15:27:17+02:00</time>
      </trkpt>
      <trkpt lat="44.6151" lon="2.09064">
        <ele>378</ele>
        <time>2021-05-09T15:27:35+02:00</time>
      </trkpt>
      <trkpt lat="44.61511" lon="2.09033">
        <ele>378</ele>
        <time>2021-05-09T15:27:52+02:00</time>
      </trkpt>
      <trkpt lat="44.6151" lon="2.09001">
        <ele>381</ele>
        <time>2021-05-09T15:28:09+02:00</time>
      </trkpt>
      <trkpt lat="44.61497" lon="2.08974">
        <ele>380</ele>
        <time>2021-05-09T15:28:26+02:00</time>
      </trkpt>
      <trkpt lat="44.61481" lon="2.08951">
        <ele>382</ele>
        <time>2021-05-09T15:28:43+02:00</time>
      </trkpt>
      <trkpt lat="44.61467" lon="2.08926">
        <ele>385</ele>
        <time>2021-05-09T15:29:01+02:00</time>
      </trkpt>
      <trkpt lat="44.61452" lon="2.089">
        <ele>385</ele>
        <time>2021-05-09T15:29:20+02:00</time>
      </trkpt>
      <trkpt lat="44.61433" lon="2.0888">
        <ele>383</ele>
        <time>2021-05-09T15:29:40+02:00</time>
      </trkpt>
      <trkpt lat="44.61422" lon="2.08852">
        <ele>383</ele>
        <time>2021-05-09T15:30:02+02:00</time>
      </trkpt>
      <trkpt lat="44.61418" lon="2.0882">
        <ele>384</ele>
        <time>2021-05-09T15:30:22+02:00</time>
      </trkpt>
      <trkpt lat="44.61412" lon="2.08789">
        <ele>379</ele>
        <time>2021-05-09T15:30:42+02:00</time>
      </trkpt>
      <trkpt lat="44.61407" lon="2.08759">
        <ele>381</ele>
        <time>2021-05-09T15:30:58+02:00</time>
      </trkpt>
      <trkpt lat="44.61399" lon="2.08728">
        <ele>380</ele>
        <time>2021-05-09T15:31:19+02:00</time>
      </trkpt>
      <trkpt lat="44.61389" lon="2.08699">
        <ele>382</ele>
        <time>2021-05-09T15:31:35+02:00</time>
      </trkpt>
      <trkpt lat="44.61368" lon="2.08708">
        <ele>380</ele>
        <time>2021-05-09T15:33:47+02:00</time>
      </trkpt>
      <trkpt lat="44.61346" lon="2.0872">
        <ele>380</ele>
        <time>2021-05-09T15:34:06+02:00</time>
      </trkpt>
      <trkpt lat="44.61325" lon="2.08729">
        <ele>380</ele>
        <time>2021-05-09T15:34:22+02:00</time>
      </trkpt>
      <trkpt lat="44.61305" lon="2.08712">
        <ele>384</ele>
        <time>2021-05-09T15:34:44+02:00</time>
      </trkpt>
      <trkpt lat="44.61287" lon="2.08692">
        <ele>384</ele>
        <time>2021-05-09T15:35:07+02:00</time>
      </trkpt>
      <trkpt lat="44.61264" lon="2.08694">
        <ele>383</ele>
        <time>2021-05-09T15:35:27+02:00</time>
      </trkpt>
      <trkpt lat="44.61241" lon="2.0869">
        <ele>381</ele>
        <time>2021-05-09T15:35:49+02:00</time>
      </trkpt>
      <trkpt lat="44.61218" lon="2.08687">
        <ele>377</ele>
        <time>2021-05-09T15:36:12+02:00</time>
      </trkpt>
      <trkpt lat="44.61196" lon="2.08682">
        <ele>375</ele>
        <time>2021-05-09T15:36:30+02:00</time>
      </trkpt>
      <trkpt lat="44.61173" lon="2.08674">
        <ele>377</ele>
        <time>2021-05-09T15:36:49+02:00</time>
      </trkpt>
      <trkpt lat="44.61178" lon="2.08642">
        <ele>372</ele>
        <time>2021-05-09T15:37:22+02:00</time>
      </trkpt>
      <trkpt lat="44.61195" lon="2.08618">
        <ele>374</ele>
        <time>2021-05-09T15:37:40+02:00</time>
      </trkpt>
      <trkpt lat="44.6121" lon="2.08593">
        <ele>375</ele>
        <time>2021-05-09T15:37:56+02:00</time>
      </trkpt>
      <trkpt lat="44.61217" lon="2.08563">
        <ele>376</ele>
        <time>2021-05-09T15:38:17+02:00</time>
      </trkpt>
      <trkpt lat="44.6121" lon="2.08532">
        <ele>377</ele>
        <time>2021-05-09T15:38:37+02:00</time>
      </trkpt>
      <trkpt lat="44.61197" lon="2.08507">
        <ele>378</ele>
        <time>2021-05-09T15:38:56+02:00</time>
      </trkpt>
      <trkpt lat="44.61194" lon="2.08474">
        <ele>380</ele>
        <time>2021-05-09T15:39:15+02:00</time>
      </trkpt>
      <trkpt lat="44.6119" lon="2.08442">
        <ele>379</ele>
        <time>2021-05-09T15:39:35+02:00</time>
      </trkpt>
      <trkpt lat="44.61195" lon="2.08411">
        <ele>383</ele>
        <time>2021-05-09T15:39:52+02:00</time>
      </trkpt>
      <trkpt lat="44.612" lon="2.08379">
        <ele>385</ele>
        <time>2021-05-09T15:40:10+02:00</time>
      </trkpt>
      <trkpt lat="44.612" lon="2.08347">
        <ele>380</ele>
        <time>2021-05-09T15:40:29+02:00</time>
      </trkpt>
      <trkpt lat="44.61202" lon="2.08314">
        <ele>379</ele>
        <time>2021-05-09T15:40:46+02:00</time>
      </trkpt>
      <trkpt lat="44.61211" lon="2.08285">
        <ele>377</ele>
        <time>2021-05-09T15:41:03+02:00</time>
      </trkpt>
      <trkpt lat="44.61218" lon="2.08252">
        <ele>380</ele>
        <time>2021-05-09T15:41:22+02:00</time>
      </trkpt>
      <trkpt lat="44.61225" lon="2.08222">
        <ele>376</ele>
        <time>2021-05-09T15:41:43+02:00</time>
      </trkpt>
      <trkpt lat="44.61227" lon="2.0819">
        <ele>377</ele>
        <time>2021-05-09T15:42:00+02:00</time>
      </trkpt>
      <trkpt lat="44.61219" lon="2.08159">
        <ele>375</ele>
        <time>2021-05-09T15:42:18+02:00</time>
      </trkpt>
      <trkpt lat="44.61206" lon="2.08132">
        <ele>375</ele>
        <time>2021-05-09T15:42:34+02:00</time>
      </trkpt>
      <trkpt lat="44.61193" lon="2.08105">
        <ele>374</ele>
        <time>2021-05-09T15:42:51+02:00</time>
      </trkpt>
      <trkpt lat="44.61177" lon="2.08083">
        <ele>375</ele>
        <time>2021-05-09T15:43:09+02:00</time>
      </trkpt>
      <trkpt lat="44.61164" lon="2.08056">
        <ele>376</ele>
        <time>2021-05-09T15:43:28+02:00</time>
      </trkpt>
      <trkpt lat="44.61148" lon="2.08032">
        <ele>373</ele>
        <time>2021-05-09T15:43:45+02:00</time>
      </trkpt>
      <trkpt lat="44.61135" lon="2.08006">
        <ele>376</ele>
        <time>2021-05-09T15:44:06+02:00</time>
      </trkpt>
      <trkpt lat="44.61132" lon="2.07975">
        <ele>378</ele>
        <time>2021-05-09T15:44:33+02:00</time>
      </trkpt>
      <trkpt lat="44.6114" lon="2.07945">
        <ele>380</ele>
        <time>2021-05-09T15:45:04+02:00</time>
      </trkpt>
      <trkpt lat="44.61163" lon="2.0794">
        <ele>380</ele>
        <time>2021-05-09T15:45:25+02:00</time>
      </trkpt>
      <trkpt lat="44.61185" lon="2.07932">
        <ele>380</ele>
        <time>2021-05-09T15:45:43+02:00</time>
      </trkpt>
      <trkpt lat="44.61207" lon="2.07925">
        <ele>381</ele>
        <time>2021-05-09T15:46:01+02:00</time>
      </trkpt>
      <trkpt lat="44.61228" lon="2.07914">
        <ele>381</ele>
        <time>2021-05-09T15:46:20+02:00</time>
      </trkpt>
      <trkpt lat="44.6122" lon="2.07882">
        <ele>382</ele>
        <time>2021-05-09T15:48:18+02:00</time>
      </trkpt>
      <trkpt lat="44.612" lon="2.07863">
        <ele>383</ele>
        <time>2021-05-09T15:49:05+02:00</time>
      </trkpt>
      <trkpt lat="44.61182" lon="2.07843">
        <ele>382</ele>
        <time>2021-05-09T15:49:24+02:00</time>
      </trkpt>
      <trkpt lat="44.61164" lon="2.07821">
        <ele>380</ele>
        <time>2021-05-09T15:49:43+02:00</time>
      </trkpt>
      <trkpt lat="44.61149" lon="2.07795">
        <ele>381</ele>
        <time>2021-05-09T15:50:01+02:00</time>
      </trkpt>
      <trkpt lat="44.61132" lon="2.07774">
        <ele>381</ele>
        <time>2021-05-09T15:50:17+02:00</time>
      </trkpt>
      <trkpt lat="44.61117" lon="2.0775">
        <ele>379</ele>
        <time>2021-05-09T15:50:34+02:00</time>
      </trkpt>
      <trkpt lat="44.61102" lon="2.07726">
        <ele>380</ele>
        <time>2021-05-09T15:50:51+02:00</time>
      </trkpt>
      <trkpt lat="44.61086" lon="2.07702">
        <ele>381</ele>
        <time>2021-05-09T15:51:11+02:00</time>
      </trkpt>
      <trkpt lat="44.61069" lon="2.0768">
        <ele>375</ele>
        <time>2021-05-09T15:51:35+02:00</time>
      </trkpt>
      <trkpt lat="44.61053" lon="2.07659">
        <ele>375</ele>
        <time>2021-05-09T15:51:54+02:00</time>
      </trkpt>
      <trkpt lat="44.6104" lon="2.07632">
        <ele>378</ele>
        <time>2021-05-09T15:52:14+02:00</time>
      </trkpt>
      <trkpt lat="44.61036" lon="2.07601">
        <ele>373</ele>
        <time>2021-05-09T15:52:34+02:00</time>
      </trkpt>
      <trkpt lat="44.61038" lon="2.07569">
        <ele>372</ele>
        <time>2021-05-09T15:52:53+02:00</time>
      </trkpt>
      <trkpt lat="44.61039" lon="2.07537">
        <ele>372</ele>
        <time>2021-05-09T15:53:13+02:00</time>
      </trkpt>
      <trkpt lat="44.61036" lon="2.07504">
        <ele>369</ele>
        <time>2021-05-09T15:53:31+02:00</time>
      </trkpt>
      <trkpt lat="44.61031" lon="2.07473">
        <ele>369</ele>
        <time>2021-05-09T15:53:51+02:00</time>
      </trkpt>
      <trkpt lat="44.61026" lon="2.07442">
        <ele>368</ele>
        <time>2021-05-09T15:54:10+02:00</time>
      </trkpt>
      <trkpt lat="44.61022" lon="2.07411">
        <ele>364</ele>
        <time>2021-05-09T15:54:29+02:00</time>
      </trkpt>
      <trkpt lat="44.61021" lon="2.07379">
        <ele>362</ele>
        <time>2021-05-09T15:54:48+02:00</time>
      </trkpt>
      <trkpt lat="44.61017" lon="2.07347">
        <ele>363</ele>
        <time>2021-05-09T15:55:06+02:00</time>
      </trkpt>
      <trkpt lat="44.61012" lon="2.07315">
        <ele>360</ele>
        <time>2021-05-09T15:55:23+02:00</time>
      </trkpt>
      <trkpt lat="44.61009" lon="2.07283">
        <ele>361</ele>
        <time>2021-05-09T15:55:43+02:00</time>
      </trkpt>
      <trkpt lat="44.61006" lon="2.07252">
        <ele>360</ele>
        <time>2021-05-09T15:56:01+02:00</time>
      </trkpt>
      <trkpt lat="44.61014" lon="2.07221">
        <ele>360</ele>
        <time>2021-05-09T15:56:20+02:00</time>
      </trkpt>
      <trkpt lat="44.61028" lon="2.07194">
        <ele>363</ele>
        <time>2021-05-09T15:56:40+02:00</time>
      </trkpt>
      <trkpt lat="44.61038" lon="2.07164">
        <ele>363</ele>
        <time>2021-05-09T15:56:59+02:00</time>
      </trkpt>
      <trkpt lat="44.61047" lon="2.07134">
        <ele>362</ele>
        <time>2021-05-09T15:57:18+02:00</time>
      </trkpt>
      <trkpt lat="44.61055" lon="2.07104">
        <ele>363</ele>
        <time>2021-05-09T15:57:37+02:00</time>
      </trkpt>
      <trkpt lat="44.61059" lon="2.07073">
        <ele>362</ele>
        <time>2021-05-09T15:57:56+02:00</time>
      </trkpt>
      <trkpt lat="44.61063" lon="2.07041">
        <ele>359</ele>
        <time>2021-05-09T15:58:15+02:00</time>
      </trkpt>
      <trkpt lat="44.61066" lon="2.07009">
        <ele>357</ele>
        <time>2021-05-09T15:59:16+02:00</time>
      </trkpt>
      <trkpt lat="44.61068" lon="2.06977">
        <ele>357</ele>
        <time>2021-05-09T15:59:39+02:00</time>
      </trkpt>
      <trkpt lat="44.6107" lon="2.06943">
        <ele>355</ele>
        <time>2021-05-09T16:00:01+02:00</time>
      </trkpt>
      <trkpt lat="44.61071" lon="2.06911">
        <ele>353</ele>
        <time>2021-05-09T16:00:23+02:00</time>
      </trkpt>
      <trkpt lat="44.61075" lon="2.0688">
        <ele>347</ele>
        <time>2021-05-09T16:00:49+02:00</time>
      </trkpt>
      <trkpt lat="44.61078" lon="2.06849">
        <ele>346</ele>
        <time>2021-05-09T16:01:17+02:00</time>
      </trkpt>
      <trkpt lat="44.61082" lon="2.06817">
        <ele>340</ele>
        <time>2021-05-09T16:01:44+02:00</time>
      </trkpt>
      <trkpt lat="44.61086" lon="2.06785">
        <ele>340</ele>
        <time>2021-05-09T16:02:05+02:00</time>
      </trkpt>
      <trkpt lat="44.61087" lon="2.06753">
        <ele>337</ele>
        <time>2021-05-09T16:02:27+02:00</time>
      </trkpt>
      <trkpt lat="44.61091" lon="2.06722">
        <ele>336</ele>
        <time>2021-05-09T16:02:48+02:00</time>
      </trkpt>
      <trkpt lat="44.61093" lon="2.0669">
        <ele>335</ele>
        <time>2021-05-09T16:03:10+02:00</time>
      </trkpt>
      <trkpt lat="44.61093" lon="2.06656">
        <ele>334</ele>
        <time>2021-05-09T16:03:31+02:00</time>
      </trkpt>
      <trkpt lat="44.61094" lon="2.06624">
        <ele>332</ele>
        <time>2021-05-09T16:03:52+02:00</time>
      </trkpt>
      <trkpt lat="44.61094" lon="2.06592">
        <ele>331</ele>
        <time>2021-05-09T16:04:12+02:00</time>
      </trkpt>
      <trkpt lat="44.61093" lon="2.06561">
        <ele>330</ele>
        <time>2021-05-09T16:04:33+02:00</time>
      </trkpt>
      <trkpt lat="44.61096" lon="2.06529">
        <ele>331</ele>
        <time>2021-05-09T16:04:53+02:00</time>
      </trkpt>
      <trkpt lat="44.61095" lon="2.06497">
        <ele>332</ele>
        <time>2021-05-09T16:05:13+02:00</time>
      </trkpt>
      <trkpt lat="44.61093" lon="2.06464">
        <ele>329</ele>
        <time>2021-05-09T16:05:35+02:00</time>
      </trkpt>
      <trkpt lat="44.61088" lon="2.06432">
        <ele>328</ele>
        <time>2021-05-09T16:05:59+02:00</time>
      </trkpt>
      <trkpt lat="44.61083" lon="2.06401">
        <ele>327</ele>
        <time>2021-05-09T16:06:20+02:00</time>
      </trkpt>
      <trkpt lat="44.61076" lon="2.06371">
        <ele>323</ele>
        <time>2021-05-09T16:06:41+02:00</time>
      </trkpt>
      <trkpt lat="44.61069" lon="2.0634">
        <ele>320</ele>
        <time>2021-05-09T16:07:02+02:00</time>
      </trkpt>
      <trkpt lat="44.61065" lon="2.06308">
        <ele>322</ele>
        <time>2021-05-09T16:07:23+02:00</time>
      </trkpt>
      <trkpt lat="44.61062" lon="2.06276">
        <ele>319</ele>
        <time>2021-05-09T16:07:42+02:00</time>
      </trkpt>
      <trkpt lat="44.61059" lon="2.06244">
        <ele>314</ele>
        <time>2021-05-09T16:08:04+02:00</time>
      </trkpt>
      <trkpt lat="44.61055" lon="2.06212">
        <ele>314</ele>
        <time>2021-05-09T16:08:24+02:00</time>
      </trkpt>
      <trkpt lat="44.61049" lon="2.06181">
        <ele>313</ele>
        <time>2021-05-09T16:08:43+02:00</time>
      </trkpt>
      <trkpt lat="44.61043" lon="2.06149">
        <ele>311</ele>
        <time>2021-05-09T16:09:03+02:00</time>
      </trkpt>
      <trkpt lat="44.61039" lon="2.06118">
        <ele>308</ele>
        <time>2021-05-09T16:09:21+02:00</time>
      </trkpt>
      <trkpt lat="44.6104" lon="2.06086">
        <ele>307</ele>
        <time>2021-05-09T16:09:40+02:00</time>
      </trkpt>
      <trkpt lat="44.61048" lon="2.06056">
        <ele>305</ele>
        <time>2021-05-09T16:12:35+02:00</time>
      </trkpt>
      <trkpt lat="44.61053" lon="2.06024">
        <ele>302</ele>
        <time>2021-05-09T16:12:55+02:00</time>
      </trkpt>
      <trkpt lat="44.61056" lon="2.05993">
        <ele>301</ele>
        <time>2021-05-09T16:13:13+02:00</time>
      </trkpt>
      <trkpt lat="44.61061" lon="2.05962">
        <ele>301</ele>
        <time>2021-05-09T16:13:32+02:00</time>
      </trkpt>
      <trkpt lat="44.61065" lon="2.0593">
        <ele>299</ele>
        <time>2021-05-09T16:13:52+02:00</time>
      </trkpt>
      <trkpt lat="44.61068" lon="2.05897">
        <ele>298</ele>
        <time>2021-05-09T16:14:10+02:00</time>
      </trkpt>
      <trkpt lat="44.61069" lon="2.05864">
        <ele>298</ele>
        <time>2021-05-09T16:14:29+02:00</time>
      </trkpt>
      <trkpt lat="44.61069" lon="2.05832">
        <ele>296</ele>
        <time>2021-05-09T16:14:48+02:00</time>
      </trkpt>
      <trkpt lat="44.61068" lon="2.058">
        <ele>293</ele>
        <time>2021-05-09T16:15:07+02:00</time>
      </trkpt>
      <trkpt lat="44.61063" lon="2.05768">
        <ele>291</ele>
        <time>2021-05-09T16:15:26+02:00</time>
      </trkpt>
      <trkpt lat="44.61054" lon="2.05738">
        <ele>285</ele>
        <time>2021-05-09T16:15:47+02:00</time>
      </trkpt>
      <trkpt lat="44.61046" lon="2.05708">
        <ele>282</ele>
        <time>2021-05-09T16:18:13+02:00</time>
      </trkpt>
      <trkpt lat="44.61044" lon="2.05675">
        <ele>279</ele>
        <time>2021-05-09T16:18:31+02:00</time>
      </trkpt>
      <trkpt lat="44.61045" lon="2.05642">
        <ele>276</ele>
        <time>2021-05-09T16:18:46+02:00</time>
      </trkpt>
      <trkpt lat="44.61044" lon="2.0561">
        <ele>273</ele>
        <time>2021-05-09T16:19:05+02:00</time>
      </trkpt>
      <trkpt lat="44.61043" lon="2.05578">
        <ele>272</ele>
        <time>2021-05-09T16:19:33+02:00</time>
      </trkpt>
      <trkpt lat="44.61037" lon="2.05546">
        <ele>270</ele>
        <time>2021-05-09T16:19:54+02:00</time>
      </trkpt>
      <trkpt lat="44.6103" lon="2.05514">
        <ele>266</ele>
        <time>2021-05-09T16:20:16+02:00</time>
      </trkpt>
      <trkpt lat="44.61022" lon="2.05483">
        <ele>262</ele>
        <time>2021-05-09T16:20:38+02:00</time>
      </trkpt>
      <trkpt lat="44.61014" lon="2.05453">
        <ele>257</ele>
        <time>2021-05-09T16:20:58+02:00</time>
      </trkpt>
      <trkpt lat="44.61006" lon="2.05421">
        <ele>256</ele>
        <time>2021-05-09T16:21:21+02:00</time>
      </trkpt>
      <trkpt lat="44.60998" lon="2.0539">
        <ele>249</ele>
        <time>2021-05-09T16:21:43+02:00</time>
      </trkpt>
      <trkpt lat="44.60991" lon="2.05358">
        <ele>242</ele>
        <time>2021-05-09T16:22:06+02:00</time>
      </trkpt>
      <trkpt lat="44.6099" lon="2.05326">
        <ele>238</ele>
        <time>2021-05-09T16:22:28+02:00</time>
      </trkpt>
      <trkpt lat="44.60992" lon="2.05294">
        <ele>236</ele>
        <time>2021-05-09T16:22:47+02:00</time>
      </trkpt>
      <trkpt lat="44.60996" lon="2.05263">
        <ele>232</ele>
        <time>2021-05-09T16:23:09+02:00</time>
      </trkpt>
      <trkpt lat="44.60988" lon="2.05233">
        <ele>225</ele>
        <time>2021-05-09T16:23:30+02:00</time>
      </trkpt>
      <trkpt lat="44.60982" lon="2.05202">
        <ele>219</ele>
        <time>2021-05-09T16:23:52+02:00</time>
      </trkpt>
      <trkpt lat="44.6098" lon="2.0517">
        <ele>214</ele>
        <time>2021-05-09T16:24:15+02:00</time>
      </trkpt>
      <trkpt lat="44.6098" lon="2.05137">
        <ele>212</ele>
        <time>2021-05-09T16:24:37+02:00</time>
      </trkpt>
      <trkpt lat="44.60991" lon="2.05109">
        <ele>210</ele>
        <time>2021-05-09T16:24:58+02:00</time>
      </trkpt>
      <trkpt lat="44.60975" lon="2.05086">
        <ele>205</ele>
        <time>2021-05-09T16:25:27+02:00</time>
      </trkpt>
      <trkpt lat="44.60953" lon="2.05092">
        <ele>202</ele>
        <time>2021-05-09T16:25:45+02:00</time>
      </trkpt>
      <trkpt lat="44.60933" lon="2.05077">
        <ele>201</ele>
        <time>2021-05-09T16:26:05+02:00</time>
      </trkpt>
      <trkpt lat="44.60919" lon="2.05051">
        <ele>204</ele>
        <time>2021-05-09T16:26:50+02:00</time>
      </trkpt>
      <trkpt lat="44.60921" lon="2.05018">
        <ele>201</ele>
        <time>2021-05-09T16:27:11+02:00</time>
      </trkpt>
      <trkpt lat="44.60907" lon="2.04991">
        <ele>202</ele>
        <time>2021-05-09T16:27:29+02:00</time>
      </trkpt>
      <trkpt lat="44.60895" lon="2.04963">
        <ele>201</ele>
        <time>2021-05-09T16:27:51+02:00</time>
      </trkpt>
      <trkpt lat="44.60885" lon="2.04933">
        <ele>200</ele>
        <time>2021-05-09T16:28:12+02:00</time>
      </trkpt>
      <trkpt lat="44.60871" lon="2.04906">
        <ele>199</ele>
        <time>2021-05-09T16:28:29+02:00</time>
      </trkpt>
      <trkpt lat="44.60856" lon="2.0488">
        <ele>199</ele>
        <time>2021-05-09T16:28:56+02:00</time>
      </trkpt>
      <trkpt lat="44.60841" lon="2.04854">
        <ele>198</ele>
        <time>2021-05-09T16:29:16+02:00</time>
      </trkpt>
      <trkpt lat="44.60827" lon="2.0483">
        <ele>199</ele>
        <time>2021-05-09T16:29:37+02:00</time>
      </trkpt>
      <trkpt lat="44.60811" lon="2.04804">
        <ele>199</ele>
        <time>2021-05-09T16:29:58+02:00</time>
      </trkpt>
      <trkpt lat="44.60799" lon="2.04778">
        <ele>200</ele>
        <time>2021-05-09T16:30:16+02:00</time>
      </trkpt>
      <trkpt lat="44.60788" lon="2.04749">
        <ele>201</ele>
        <time>2021-05-09T16:30:36+02:00</time>
      </trkpt>
      <trkpt lat="44.60781" lon="2.04717">
        <ele>202</ele>
        <time>2021-05-09T16:30:56+02:00</time>
      </trkpt>
      <trkpt lat="44.60775" lon="2.04687">
        <ele>201</ele>
        <time>2021-05-09T16:31:15+02:00</time>
      </trkpt>
      <trkpt lat="44.60773" lon="2.04655">
        <ele>199</ele>
        <time>2021-05-09T16:31:34+02:00</time>
      </trkpt>
      <trkpt lat="44.60768" lon="2.04623">
        <ele>202</ele>
        <time>2021-05-09T16:31:53+02:00</time>
      </trkpt>
      <trkpt lat="44.60766" lon="2.04591">
        <ele>204</ele>
        <time>2021-05-09T16:32:12+02:00</time>
      </trkpt>
      <trkpt lat="44.60759" lon="2.04559">
        <ele>203</ele>
        <time>2021-05-09T16:32:31+02:00</time>
      </trkpt>
      <trkpt lat="44.60756" lon="2.04528">
        <ele>204</ele>
        <time>2021-05-09T16:32:50+02:00</time>
      </trkpt>
      <trkpt lat="44.60754" lon="2.04496">
        <ele>205</ele>
        <time>2021-05-09T16:33:10+02:00</time>
      </trkpt>
      <trkpt lat="44.6075" lon="2.04463">
        <ele>203</ele>
        <time>2021-05-09T16:33:29+02:00</time>
      </trkpt>
      <trkpt lat="44.60743" lon="2.04432">
        <ele>204</ele>
        <time>2021-05-09T16:33:48+02:00</time>
      </trkpt>
      <trkpt lat="44.60738" lon="2.04401">
        <ele>206</ele>
        <time>2021-05-09T16:34:07+02:00</time>
      </trkpt>
      <trkpt lat="44.60729" lon="2.04371">
        <ele>204</ele>
        <time>2021-05-09T16:34:26+02:00</time>
      </trkpt>
      <trkpt lat="44.60721" lon="2.04339">
        <ele>205</ele>
        <time>2021-05-09T16:34:45+02:00</time>
      </trkpt>
      <trkpt lat="44.60714" lon="2.04307">
        <ele>202</ele>
        <time>2021-05-09T16:35:04+02:00</time>
      </trkpt>
      <trkpt lat="44.60713" lon="2.04275">
        <ele>202</ele>
        <time>2021-05-09T16:35:24+02:00</time>
      </trkpt>
      <trkpt lat="44.60714" lon="2.04243">
        <ele>200</ele>
        <time>2021-05-09T16:35:45+02:00</time>
      </trkpt>
      <trkpt lat="44.60731" lon="2.04222">
        <ele>202</ele>
        <time>2021-05-09T16:36:05+02:00</time>
      </trkpt>
      <trkpt lat="44.60754" lon="2.04211">
        <ele>198</ele>
        <time>2021-05-09T16:36:27+02:00</time>
      </trkpt>
      <trkpt lat="44.60776" lon="2.04203">
        <ele>201</ele>
        <time>2021-05-09T16:36:44+02:00</time>
      </trkpt>
      <trkpt lat="44.60799" lon="2.042">
        <ele>200</ele>
        <time>2021-05-09T16:37:02+02:00</time>
      </trkpt>
      <trkpt lat="44.60817" lon="2.04219">
        <ele>197</ele>
        <time>2021-05-09T16:37:29+02:00</time>
      </trkpt>
      <trkpt lat="44.6082" lon="2.04251">
        <ele>200</ele>
        <time>2021-05-09T16:37:54+02:00</time>
      </trkpt>
    </trkseg>
  </trk>
</gpx>